
Distance (Route):
Temperature : 0°C
Humidity : 0%
Pressure : 0hPa| Receiver | Date | Latitude | Longitude | Direction | Speed | Altitude | Climb | Temperature | Humidity | Pressure | Voltage | Killtimer | Uptime | BKT | XDATA |
|---|---|---|---|---|---|---|---|---|---|---|---|---|---|---|---|
| DB0UT-7 | 2026-09-04 17:50:23 | 48.63179 | 5.77967 | 94° | 51km/h | 1195m | -1.6m/s | 0°C | 0% | 0hPa | 0V | 00:00:00 | 00:00:00 | 00:00:00 | |
| DB0UT-7 | 2026-09-04 17:49:19 | 48.63125 | 5.76803 | 86° | 49km/h | 1303m | -1.6m/s | 0°C | 0% | 0hPa | 0V | 00:00:00 | 00:00:00 | 00:00:00 | |
| DB0UT-7 | 2026-09-04 17:48:53 | 48.63097 | 5.76363 | 91° | 49km/h | 1346m | -1.6m/s | 0°C | 0% | 0hPa | 0V | 00:00:00 | 00:00:00 | 00:00:00 | |
| DB0UT-7 | 2026-09-04 17:47:35 | 48.63005 | 5.74997 | 78° | 42km/h | 1479m | -1.4m/s | 0°C | 0% | 0hPa | 0V | 00:00:00 | 00:00:00 | 00:00:00 | |
| DB0UT-7 | 2026-09-04 17:47:25 | 48.62999 | 5.74835 | 91° | 46km/h | 1497m | -1.7m/s | 0°C | 0% | 0hPa | 0V | 00:00:00 | 00:00:00 | 00:00:00 | |
| DB0UT-7 | 2026-09-04 17:47:09 | 48.62974 | 5.74547 | 85° | 42km/h | 1524m | -1.7m/s | 0°C | 0% | 0hPa | 0V | 00:00:00 | 00:00:00 | 00:00:00 | |
| DB0UT-7 | 2026-09-04 17:46:59 | 48.62972 | 5.74377 | 89° | 49km/h | 1541m | -1.6m/s | 0°C | 0% | 0hPa | 0V | 00:00:00 | 00:00:00 | 00:00:00 | |
| DB0UT-7 | 2026-09-04 17:45:51 | 48.62858 | 5.73182 | 89° | 49km/h | 1652m | -1.7m/s | 0°C | 0% | 0hPa | 0V | 00:00:00 | 00:00:00 | 00:00:00 | |
| DB0UT-7 | 2026-09-04 17:45:39 | 48.62838 | 5.72957 | 74° | 44km/h | 1674m | -1.7m/s | 0°C | 0% | 0hPa | 0V | 00:00:00 | 00:00:00 | 00:00:00 | |
| DB0UT-7 | 2026-09-04 17:45:29 | 48.62812 | 5.72793 | 86° | 49km/h | 1692m | -1.6m/s | 0°C | 0% | 0hPa | 0V | 00:00:00 | 00:00:00 | 00:00:00 | |
| DB0UT-7 | 2026-09-04 17:45:19 | 48.62800 | 5.72610 | 79° | 46km/h | 1709m | -1.6m/s | 0°C | 0% | 0hPa | 0V | 00:00:00 | 00:00:00 | 00:00:00 | |
| DB0UT-7 | 2026-09-04 17:44:15 | 48.62626 | 5.71481 | 84° | 53km/h | 1825m | -1.9m/s | 0°C | 0% | 0hPa | 0V | 00:00:00 | 00:00:00 | 00:00:00 | |
| DB0UT-7 | 2026-09-04 17:44:05 | 48.62593 | 5.71289 | 71° | 46km/h | 1844m | -1.6m/s | 0°C | 0% | 0hPa | 0V | 00:00:00 | 00:00:00 | 00:00:00 | |
| DB0UT-7 | 2026-09-04 17:43:45 | 48.62545 | 5.70920 | 74° | 51km/h | 1880m | -1.7m/s | 0°C | 0% | 0hPa | 0V | 00:00:00 | 00:00:00 | 00:00:00 | |
| DB0UT-7 | 2026-09-04 17:43:35 | 48.62507 | 5.70734 | 80° | 51km/h | 1897m | -1.7m/s | 0°C | 0% | 0hPa | 0V | 00:00:00 | 00:00:00 | 00:00:00 | |
| DB0UT-7 | 2026-09-04 17:42:26 | 48.62405 | 5.69310 | 90° | 57km/h | 2029m | -1.7m/s | 0°C | 0% | 0hPa | 0V | 00:00:00 | 00:00:00 | 00:00:00 | |
| DB0UT-7 | 2026-09-04 17:42:06 | 48.62372 | 5.68887 | 89° | 57km/h | 2064m | -1.6m/s | 0°C | 0% | 0hPa | 0V | 00:00:00 | 00:00:00 | 00:00:00 | |
| DB0UT-7 | 2026-09-04 17:41:46 | 48.62340 | 5.68455 | 86° | 55km/h | 2102m | -1.7m/s | 0°C | 0% | 0hPa | 0V | 00:00:00 | 00:00:00 | 00:00:00 | |
| DB0UT-7 | 2026-09-04 17:40:43 | 48.62284 | 5.67141 | 86° | 57km/h | 2230m | -2.0m/s | 0°C | 0% | 0hPa | 0V | 00:00:00 | 00:00:00 | 00:00:00 | |
| DB0UT-7 | 2026-09-04 17:40:23 | 48.62283 | 5.66701 | 81° | 58km/h | 2273m | -2.0m/s | 0°C | 0% | 0hPa | 0V | 00:00:00 | 00:00:00 | 00:00:00 | |
| DB0UT-7 | 2026-09-04 17:40:03 | 48.62289 | 5.66254 | 88° | 68km/h | 2319m | -2.2m/s | 0°C | 0% | 0hPa | 0V | 00:00:00 | 00:00:00 | 00:00:00 | |
| DB0UT-7 | 2026-09-04 17:39:01 | 48.62297 | 5.64773 | 88° | 64km/h | 2449m | -2.0m/s | 0°C | 0% | 0hPa | 0V | 00:00:00 | 00:00:00 | 00:00:00 | |
| DB0UT-7 | 2026-09-04 17:38:41 | 48.62296 | 5.64280 | 88° | 66km/h | 2491m | -1.7m/s | 0°C | 0% | 0hPa | 0V | 00:00:00 | 00:00:00 | 00:00:00 | |
| DB0UT-7 | 2026-09-04 17:38:21 | 48.62299 | 5.63781 | 88° | 69km/h | 2531m | -2.0m/s | 0°C | 0% | 0hPa | 0V | 00:00:00 | 00:00:00 | 00:00:00 | |
| DB0UT-7 | 2026-09-04 17:37:18 | 48.62290 | 5.62206 | 91° | 66km/h | 2659m | -1.8m/s | 0°C | 0% | 0hPa | 0V | 00:00:00 | 00:00:00 | 00:00:00 | |
| DB0UT-7 | 2026-09-04 17:36:58 | 48.62286 | 5.61710 | 90° | 64km/h | 2697m | -1.6m/s | 0°C | 0% | 0hPa | 0V | 00:00:00 | 00:00:00 | 00:00:00 | |
| DB0UT-7 | 2026-09-04 17:36:38 | 48.62284 | 5.61219 | 91° | 69km/h | 2733m | -1.6m/s | 0°C | 0% | 0hPa | 0V | 00:00:00 | 00:00:00 | 00:00:00 | |
| DB0UT-7 | 2026-09-04 17:35:32 | 48.62304 | 5.59579 | 89° | 64km/h | 2842m | -1.7m/s | 0°C | 0% | 0hPa | 0V | 00:00:00 | 00:00:00 | 00:00:00 | |
| DB0UT-7 | 2026-09-04 17:35:12 | 48.62314 | 5.59093 | 93° | 64km/h | 2876m | -1.9m/s | 0°C | 0% | 0hPa | 0V | 00:00:00 | 00:00:00 | 00:00:00 | |
| DB0UT-7 | 2026-09-04 17:34:52 | 48.62318 | 5.58601 | 92° | 68km/h | 2914m | -1.8m/s | 0°C | 0% | 0hPa | 0V | 00:00:00 | 00:00:00 | 00:00:00 | |
| DB0UT-7 | 2026-09-04 17:34:27 | 48.62308 | 5.57962 | 84° | 69km/h | 2962m | -1.9m/s | 0°C | 0% | 0hPa | 0V | 00:00:00 | 00:00:00 | 00:00:00 | |
| DB0UT-7 | 2026-09-04 17:34:06 | 48.62292 | 5.57422 | 82° | 66km/h | 3005m | -2.2m/s | 0°C | 0% | 0hPa | 0V | 00:00:00 | 00:00:00 | 00:00:00 | |
| DB0UT-7 | 2026-09-04 17:33:36 | 48.62259 | 5.56667 | 92° | 71km/h | 3071m | -2.2m/s | 0°C | 0% | 0hPa | 0V | 00:00:00 | 00:00:00 | 00:00:00 | |
| DB0UT-7 | 2026-09-04 17:33:06 | 48.62216 | 5.55862 | 78° | 69km/h | 3140m | -2.3m/s | 0°C | 0% | 0hPa | 0V | 00:00:00 | 00:00:00 | 00:00:00 | |
| DB0UT-7 | 2026-09-04 17:32:35 | 48.62149 | 5.55046 | 87° | 73km/h | 3213m | -2.2m/s | 0°C | 0% | 0hPa | 0V | 00:00:00 | 00:00:00 | 00:00:00 | |
| DB0UT-7 | 2026-09-04 17:32:05 | 48.62056 | 5.54229 | 78° | 69km/h | 3283m | -2.3m/s | 0°C | 0% | 0hPa | 0V | 00:00:00 | 00:00:00 | 00:00:00 | |
| DB0UT-7 | 2026-09-04 17:31:35 | 48.61980 | 5.53443 | 85° | 73km/h | 3351m | -2.0m/s | 0°C | 0% | 0hPa | 0V | 00:00:00 | 00:00:00 | 00:00:00 | |
| DB0UT-7 | 2026-09-04 17:31:05 | 48.61878 | 5.52635 | 76° | 69km/h | 3417m | -1.8m/s | 0°C | 0% | 0hPa | 0V | 00:00:00 | 00:00:00 | 00:00:00 | |
| DB0UT-7 | 2026-09-04 17:30:35 | 48.61796 | 5.51851 | 80° | 69km/h | 3477m | -1.9m/s | 0°C | 0% | 0hPa | 0V | 00:00:00 | 00:00:00 | 00:00:00 | |
| DB0UT-7 | 2026-09-04 17:30:06 | 48.61697 | 5.51080 | 86° | 71km/h | 3537m | -1.8m/s | 0°C | 0% | 0hPa | 0V | 00:00:00 | 00:00:00 | 00:00:00 | |
| DB0UT-7 | 2026-09-04 17:29:35 | 48.61604 | 5.50277 | 73° | 71km/h | 3597m | -2.0m/s | 0°C | 0% | 0hPa | 0V | 00:00:00 | 00:00:00 | 00:00:00 | |
| DB0UT-7 | 2026-09-04 17:29:05 | 48.61511 | 5.49486 | 80° | 71km/h | 3654m | -2.0m/s | 0°C | 0% | 0hPa | 0V | 00:00:00 | 00:00:00 | 00:00:00 | |
| DB0UT-7 | 2026-09-04 17:28:35 | 48.61416 | 5.48695 | 84° | 73km/h | 3711m | -1.5m/s | 0°C | 0% | 0hPa | 0V | 00:00:00 | 00:00:00 | 00:00:00 | |
| DB0UT-7 | 2026-09-04 17:28:05 | 48.61326 | 5.47862 | 75° | 73km/h | 3767m | -2.0m/s | 0°C | 0% | 0hPa | 0V | 00:00:00 | 00:00:00 | 00:00:00 | |
| DB0UT-7 | 2026-09-04 17:27:35 | 48.61212 | 5.47052 | 85° | 75km/h | 3823m | -1.5m/s | 0°C | 0% | 0hPa | 0V | 00:00:00 | 00:00:00 | 00:00:00 | |
| DB0UT-7 | 2026-09-04 17:27:05 | 48.61093 | 5.46214 | 76° | 73km/h | 3878m | -1.7m/s | 0°C | 0% | 0hPa | 0V | 00:00:00 | 00:00:00 | 00:00:00 | |
| DB0UT-7 | 2026-09-04 17:26:35 | 48.60984 | 5.45382 | 75° | 73km/h | 3936m | -1.8m/s | 0°C | 0% | 0hPa | 0V | 00:00:00 | 00:00:00 | 00:00:00 | |
| DB0UT-7 | 2026-09-04 17:26:05 | 48.60858 | 5.44564 | 82° | 77km/h | 3993m | -1.8m/s | 0°C | 0% | 0hPa | 0V | 00:00:00 | 00:00:00 | 00:00:00 | |
| DB0UT-7 | 2026-09-04 17:25:35 | 48.60729 | 5.43711 | 72° | 75km/h | 4052m | -2.0m/s | 0°C | 0% | 0hPa | 0V | 00:00:00 | 00:00:00 | 00:00:00 | |
| DB0UT-7 | 2026-09-04 17:25:05 | 48.60614 | 5.42882 | 78° | 75km/h | 4109m | -1.9m/s | 0°C | 0% | 0hPa | 0V | 00:00:00 | 00:00:00 | 00:00:00 | |
| DB0UT-7 | 2026-09-04 17:24:35 | 48.60476 | 5.42058 | 82° | 77km/h | 4169m | -2.0m/s | 0°C | 0% | 0hPa | 0V | 00:00:00 | 00:00:00 | 00:00:00 | |
| DB0UT-7 | 2026-09-04 17:24:05 | 48.60335 | 5.41199 | 76° | 80km/h | 4231m | -1.7m/s | 0°C | 0% | 0hPa | 0V | 00:00:00 | 00:00:00 | 00:00:00 | |
| DB0UT-7 | 2026-09-04 17:23:35 | 48.60192 | 5.40309 | 75° | 82km/h | 4292m | -1.6m/s | 0°C | 0% | 0hPa | 0V | 00:00:00 | 00:00:00 | 00:00:00 | |
| DB0UT-7 | 2026-09-04 17:23:05 | 48.60035 | 5.39404 | 77° | 80km/h | 4359m | -2.4m/s | 0°C | 0% | 0hPa | 0V | 00:00:00 | 00:00:00 | 00:00:00 | |
| DB0UT-7 | 2026-09-04 17:22:35 | 48.59879 | 5.38511 | 78° | 82km/h | 4425m | -2.2m/s | 0°C | 0% | 0hPa | 0V | 00:00:00 | 00:00:00 | 00:00:00 | |
| DB0UT-7 | 2026-09-04 17:22:05 | 48.59708 | 5.37608 | 73° | 84km/h | 4492m | -2.2m/s | 0°C | 0% | 0hPa | 0V | 00:00:00 | 00:00:00 | 00:00:00 | |
| DB0UT-7 | 2026-09-04 17:21:35 | 48.59517 | 5.36697 | 71° | 82km/h | 4563m | -2.4m/s | 0°C | 0% | 0hPa | 0V | 00:00:00 | 00:00:00 | 00:00:00 | |
| DB0UT-7 | 2026-09-04 17:21:05 | 48.59325 | 5.35791 | 75° | 84km/h | 4634m | -2.2m/s | 0°C | 0% | 0hPa | 0V | 00:00:00 | 00:00:00 | 00:00:00 | |
| DB0UT-7 | 2026-09-04 17:20:35 | 48.59149 | 5.34869 | 73° | 84km/h | 4702m | -2.2m/s | 0°C | 0% | 0hPa | 0V | 00:00:00 | 00:00:00 | 00:00:00 | |
| DB0UT-7 | 2026-09-04 17:20:05 | 48.58991 | 5.33936 | 78° | 84km/h | 4767m | -1.8m/s | 0°C | 0% | 0hPa | 0V | 00:00:00 | 00:00:00 | 00:00:00 | |
| DB0UT-7 | 2026-09-04 17:19:35 | 48.58854 | 5.33000 | 74° | 84km/h | 4830m | -1.8m/s | 0°C | 0% | 0hPa | 0V | 00:00:00 | 00:00:00 | 00:00:00 | |
| DB0UT-7 | 2026-09-04 17:18:35 | 48.58577 | 5.31128 | 77° | 86km/h | 4940m | -1.6m/s | 0°C | 0% | 0hPa | 0V | 00:00:00 | 00:00:00 | 00:00:00 | |
| DB0UT-7 | 2026-09-04 17:18:05 | 48.58412 | 5.30167 | 78° | 88km/h | 4988m | -1.2m/s | 0°C | 0% | 0hPa | 0V | 00:00:00 | 00:00:00 | 00:00:00 | |
| DB0UT-7 | 2026-09-04 17:17:35 | 48.58246 | 5.29194 | 71° | 91km/h | 5034m | -1.7m/s | 0°C | 0% | 0hPa | 0V | 00:00:00 | 00:00:00 | 00:00:00 | |
| DB0UT-7 | 2026-09-04 17:17:05 | 48.58058 | 5.28198 | 73° | 93km/h | 5078m | -1.5m/s | 0°C | 0% | 0hPa | 0V | 00:00:00 | 00:00:00 | 00:00:00 | |
| DB0UT-7 | 2026-09-04 17:16:35 | 48.57865 | 5.27181 | 79° | 93km/h | 5123m | -1.4m/s | 0°C | 0% | 0hPa | 0V | 00:00:00 | 00:00:00 | 00:00:00 | |
| DB0UT-7 | 2026-09-04 17:16:05 | 48.57662 | 5.26163 | 78° | 95km/h | 5173m | -1.7m/s | 0°C | 0% | 0hPa | 0V | 00:00:00 | 00:00:00 | 00:00:00 | |
| DB0UT-7 | 2026-09-04 17:15:35 | 48.57454 | 5.25125 | 79° | 93km/h | 5226m | -1.8m/s | 0°C | 0% | 0hPa | 0V | 00:00:00 | 00:00:00 | 00:00:00 | |
| DB0UT-7 | 2026-09-04 17:15:05 | 48.57267 | 5.24093 | 81° | 93km/h | 5285m | -1.9m/s | 0°C | 0% | 0hPa | 0V | 00:00:00 | 00:00:00 | 00:00:00 | |
| DB0UT-7 | 2026-09-04 17:14:35 | 48.57107 | 5.23052 | 83° | 95km/h | 5348m | -1.9m/s | 0°C | 0% | 0hPa | 0V | 00:00:00 | 00:00:00 | 00:00:00 | |
| DB0UT-7 | 2026-09-04 17:14:05 | 48.56949 | 5.21987 | 83° | 97km/h | 5416m | -2.3m/s | 0°C | 0% | 0hPa | 0V | 00:00:00 | 00:00:00 | 00:00:00 | |
| DB0UT-7 | 2026-09-04 17:13:35 | 48.56786 | 5.20919 | 82° | 95km/h | 5485m | -2.3m/s | 0°C | 0% | 0hPa | 0V | 00:00:00 | 00:00:00 | 00:00:00 | |
| DB0UT-7 | 2026-09-04 17:13:05 | 48.56623 | 5.19857 | 83° | 95km/h | 5555m | -2.2m/s | 0°C | 0% | 0hPa | 0V | 00:00:00 | 00:00:00 | 00:00:00 | |
| DB0UT-7 | 2026-09-04 17:12:35 | 48.56460 | 5.18792 | 83° | 97km/h | 5626m | -2.2m/s | 0°C | 0% | 0hPa | 0V | 00:00:00 | 00:00:00 | 00:00:00 | |
| DB0UT-7 | 2026-09-04 17:12:05 | 48.56291 | 5.17722 | 82° | 97km/h | 5696m | -2.0m/s | 0°C | 0% | 0hPa | 0V | 00:00:00 | 00:00:00 | 00:00:00 | |
| DB0UT-7 | 2026-09-04 17:11:35 | 48.56119 | 5.16635 | 78° | 99km/h | 5766m | -2.2m/s | 0°C | 0% | 0hPa | 0V | 00:00:00 | 00:00:00 | 00:00:00 | |
| DB0UT-7 | 2026-09-04 17:11:05 | 48.55934 | 5.15533 | 76° | 100km/h | 5836m | -2.2m/s | 0°C | 0% | 0hPa | 0V | 00:00:00 | 00:00:00 | 00:00:00 | |
| DB0UT-7 | 2026-09-04 17:10:35 | 48.55742 | 5.14427 | 74° | 99km/h | 5904m | -1.9m/s | 0°C | 0% | 0hPa | 0V | 00:00:00 | 00:00:00 | 00:00:00 | |
| DB0UT-7 | 2026-09-04 17:10:05 | 48.55553 | 5.13331 | 74° | 99km/h | 5970m | -1.8m/s | 0°C | 0% | 0hPa | 0V | 00:00:00 | 00:00:00 | 00:00:00 | |
| DB0UT-7 | 2026-09-04 17:09:35 | 48.55389 | 5.12234 | 76° | 102km/h | 6035m | -1.9m/s | 0°C | 0% | 0hPa | 0V | 00:00:00 | 00:00:00 | 00:00:00 | |
| DB0UT-7 | 2026-09-04 17:09:05 | 48.55228 | 5.11101 | 75° | 102km/h | 6098m | -2.0m/s | 0°C | 0% | 0hPa | 0V | 00:00:00 | 00:00:00 | 00:00:00 | |
| DB0UT-7 | 2026-09-04 17:08:35 | 48.55050 | 5.09955 | 73° | 100km/h | 6162m | -1.5m/s | 0°C | 0% | 0hPa | 0V | 00:00:00 | 00:00:00 | 00:00:00 | |
| DB0UT-7 | 2026-09-04 17:08:05 | 48.54872 | 5.08842 | 72° | 99km/h | 6226m | -2.1m/s | 0°C | 0% | 0hPa | 0V | 00:00:00 | 00:00:00 | 00:00:00 | |
| DB0UT-7 | 2026-09-04 17:07:35 | 48.54671 | 5.07758 | 69° | 97km/h | 6291m | -2.0m/s | 0°C | 0% | 0hPa | 0V | 00:00:00 | 00:00:00 | 00:00:00 | |
| DB0UT-7 | 2026-09-04 17:07:05 | 48.54458 | 5.06692 | 68° | 99km/h | 6355m | -2.0m/s | 0°C | 0% | 0hPa | 0V | 00:00:00 | 00:00:00 | 00:00:00 | |
| DB0UT-7 | 2026-09-04 17:06:35 | 48.54220 | 5.05633 | 66° | 97km/h | 6418m | -2.0m/s | 0°C | 0% | 0hPa | 0V | 00:00:00 | 00:00:00 | 00:00:00 | |
| DB0UT-7 | 2026-09-04 17:06:05 | 48.53946 | 5.04608 | 69° | 99km/h | 6476m | -1.9m/s | 0°C | 0% | 0hPa | 0V | 00:00:00 | 00:00:00 | 00:00:00 | |
| DB0UT-7 | 2026-09-04 17:05:35 | 48.53678 | 5.03556 | 69° | 99km/h | 6533m | -1.5m/s | 0°C | 0% | 0hPa | 0V | 00:00:00 | 00:00:00 | 00:00:00 | |
| DB0UT-7 | 2026-09-04 17:05:05 | 48.53417 | 5.02502 | 72° | 99km/h | 6590m | -2.0m/s | 0°C | 0% | 0hPa | 0V | 00:00:00 | 00:00:00 | 00:00:00 | |
| DB0UT-7 | 2026-09-04 17:04:35 | 48.53184 | 5.01425 | 77° | 99km/h | 6651m | -2.0m/s | 0°C | 0% | 0hPa | 0V | 00:00:00 | 00:00:00 | 00:00:00 | |
| DB0UT-7 | 2026-09-04 17:04:05 | 48.52988 | 5.00330 | 81° | 102km/h | 6711m | -1.9m/s | 0°C | 0% | 0hPa | 0V | 00:00:00 | 00:00:00 | 00:00:00 | |
| DB0UT-7 | 2026-09-04 17:03:35 | 48.52791 | 4.99191 | 81° | 104km/h | 6773m | -1.7m/s | 0°C | 0% | 0hPa | 0V | 00:00:00 | 00:00:00 | 00:00:00 | |
| DB0UT-7 | 2026-09-04 17:03:05 | 48.52582 | 4.98030 | 80° | 104km/h | 6835m | -2.3m/s | 0°C | 0% | 0hPa | 0V | 00:00:00 | 00:00:00 | 00:00:00 | |
| DB0UT-7 | 2026-09-04 17:02:35 | 48.52369 | 4.96879 | 79° | 104km/h | 6901m | -2.0m/s | 0°C | 0% | 0hPa | 0V | 00:00:00 | 00:00:00 | 00:00:00 | |
| DB0UT-7 | 2026-09-04 17:02:05 | 48.52156 | 4.95743 | 79° | 102km/h | 6969m | -1.9m/s | 0°C | 0% | 0hPa | 0V | 00:00:00 | 00:00:00 | 00:00:00 | |
| DB0UT-7 | 2026-09-04 17:01:35 | 48.51940 | 4.94619 | 78° | 102km/h | 7038m | -2.2m/s | 0°C | 0% | 0hPa | 0V | 00:00:00 | 00:00:00 | 00:00:00 | |
| DB0UT-7 | 2026-09-04 17:01:05 | 48.51732 | 4.93501 | 78° | 100km/h | 7111m | -2.8m/s | 0°C | 0% | 0hPa | 0V | 00:00:00 | 00:00:00 | 00:00:00 | |
| DB0UT-7 | 2026-09-04 17:00:35 | 48.51542 | 4.92401 | 76° | 99km/h | 7185m | -2.7m/s | 0°C | 0% | 0hPa | 0V | 00:00:00 | 00:00:00 | 00:00:00 | |
| DB0UT-7 | 2026-09-04 17:00:05 | 48.51346 | 4.91306 | 74° | 97km/h | 7262m | -2.3m/s | 0°C | 0% | 0hPa | 0V | 00:00:00 | 00:00:00 | 00:00:00 | |
| DB0UT-7 | 2026-09-04 16:59:35 | 48.51151 | 4.90234 | 73° | 97km/h | 7340m | -2.3m/s | 0°C | 0% | 0hPa | 0V | 00:00:00 | 00:00:00 | 00:00:00 | |
| DB0UT-7 | 2026-09-04 16:59:05 | 48.50947 | 4.89175 | 72° | 97km/h | 7419m | -2.2m/s | 0°C | 0% | 0hPa | 0V | 00:00:00 | 00:00:00 | 00:00:00 | |
| DB0UT-7 | 2026-09-04 16:58:35 | 48.50739 | 4.88127 | 70° | 95km/h | 7494m | -2.5m/s | 0°C | 0% | 0hPa | 0V | 00:00:00 | 00:00:00 | 00:00:00 | |
| DB0UT-7 | 2026-09-04 16:58:05 | 48.50524 | 4.87106 | 70° | 95km/h | 7569m | -2.5m/s | 0°C | 0% | 0hPa | 0V | 00:00:00 | 00:00:00 | 00:00:00 | |
| DB0UT-7 | 2026-09-04 16:57:35 | 48.50282 | 4.86087 | 68° | 97km/h | 7642m | -3.6m/s | 0°C | 0% | 0hPa | 0V | 00:00:00 | 00:00:00 | 00:00:00 | |
| DB0UT-7 | 2026-09-04 16:57:05 | 48.50032 | 4.85048 | 68° | 99km/h | 7719m | -2.4m/s | 0°C | 0% | 0hPa | 0V | 00:00:00 | 00:00:00 | 00:00:00 | |
| DB0UT-7 | 2026-09-04 16:56:35 | 48.49807 | 4.83970 | 70° | 104km/h | 7798m | -2.4m/s | 0°C | 0% | 0hPa | 0V | 00:00:00 | 00:00:00 | 00:00:00 | |
| DB0UT-7 | 2026-09-04 16:56:05 | 48.49595 | 4.82834 | 69° | 104km/h | 7876m | -2.6m/s | 0°C | 0% | 0hPa | 0V | 00:00:00 | 00:00:00 | 00:00:00 | |
| DB0UT-7 | 2026-09-04 16:55:35 | 48.49403 | 4.81687 | 73° | 104km/h | 7957m | -2.7m/s | 0°C | 0% | 0hPa | 0V | 00:00:00 | 00:00:00 | 00:00:00 | |
| DB0UT-7 | 2026-09-04 16:55:05 | 48.49238 | 4.80538 | 78° | 104km/h | 8037m | -2.6m/s | 0°C | 0% | 0hPa | 0V | 00:00:00 | 00:00:00 | 00:00:00 | |
| DB0UT-7 | 2026-09-04 16:54:35 | 48.49095 | 4.79375 | 81° | 102km/h | 8117m | -2.5m/s | 0°C | 0% | 0hPa | 0V | 00:00:00 | 00:00:00 | 00:00:00 | |
| DB0UT-7 | 2026-09-04 16:54:05 | 48.48962 | 4.78233 | 84° | 100km/h | 8199m | -2.6m/s | 0°C | 0% | 0hPa | 0V | 00:00:00 | 00:00:00 | 00:00:00 | |
| DB0UT-7 | 2026-09-04 16:53:35 | 48.48808 | 4.77118 | 84° | 99km/h | 8279m | -2.5m/s | 0°C | 0% | 0hPa | 0V | 00:00:00 | 00:00:00 | 00:00:00 | |
| DB0UT-7 | 2026-09-04 16:53:05 | 48.48653 | 4.76010 | 84° | 100km/h | 8360m | -2.8m/s | 0°C | 0% | 0hPa | 0V | 00:00:00 | 00:00:00 | 00:00:00 | |
| DB0UT-7 | 2026-09-04 16:52:35 | 48.48487 | 4.74890 | 80° | 102km/h | 8444m | -2.8m/s | 0°C | 0% | 0hPa | 0V | 00:00:00 | 00:00:00 | 00:00:00 | |
| DB0UT-7 | 2026-09-04 16:52:07 | 48.48319 | 4.73743 | 79° | 102km/h | 8530m | -2.8m/s | 0°C | 0% | 0hPa | 0V | 00:00:00 | 00:00:00 | 00:00:00 | |
| DB0UT-7 | 2026-09-04 16:51:35 | 48.48163 | 4.72608 | 77° | 100km/h | 8615m | -2.7m/s | 0°C | 0% | 0hPa | 0V | 00:00:00 | 00:00:00 | 00:00:00 | |
| DB0UT-7 | 2026-09-04 16:51:05 | 48.48007 | 4.71488 | 75° | 102km/h | 8701m | -2.9m/s | 0°C | 0% | 0hPa | 0V | 00:00:00 | 00:00:00 | 00:00:00 | |
| DB0UT-7 | 2026-09-04 16:50:35 | 48.47836 | 4.70361 | 72° | 102km/h | 8786m | -2.9m/s | 0°C | 0% | 0hPa | 0V | 00:00:00 | 00:00:00 | 00:00:00 | |
| DB0UT-7 | 2026-09-04 16:49:35 | 48.47495 | 4.68108 | 74° | 104km/h | 8954m | -2.7m/s | 0°C | 0% | 0hPa | 0V | 00:00:00 | 00:00:00 | 00:00:00 | |
| DB0UT-7 | 2026-09-04 16:49:05 | 48.47345 | 4.66956 | 76° | 102km/h | 9036m | -2.7m/s | 0°C | 0% | 0hPa | 0V | 00:00:00 | 00:00:00 | 00:00:00 | |
| DB0UT-7 | 2026-09-04 16:48:35 | 48.47201 | 4.65804 | 78° | 100km/h | 9116m | -2.7m/s | 0°C | 0% | 0hPa | 0V | 00:00:00 | 00:00:00 | 00:00:00 | |
| DB0UT-7 | 2026-09-04 16:48:05 | 48.47061 | 4.64684 | 83° | 100km/h | 9195m | -2.6m/s | 0°C | 0% | 0hPa | 0V | 00:00:00 | 00:00:00 | 00:00:00 | |
| DB0UT-7 | 2026-09-04 16:47:35 | 48.46925 | 4.63564 | 85° | 100km/h | 9275m | -2.5m/s | 0°C | 0% | 0hPa | 0V | 00:00:00 | 00:00:00 | 00:00:00 | |
| DB0UT-7 | 2026-09-04 16:47:05 | 48.46790 | 4.62430 | 86° | 102km/h | 9354m | -2.6m/s | 0°C | 0% | 0hPa | 0V | 00:00:00 | 00:00:00 | 00:00:00 | |
| DB0UT-7 | 2026-09-04 16:46:35 | 48.46651 | 4.61282 | 86° | 104km/h | 9435m | -2.7m/s | 0°C | 0% | 0hPa | 0V | 00:00:00 | 00:00:00 | 00:00:00 | |
| DB0UT-7 | 2026-09-04 16:46:05 | 48.46499 | 4.60123 | 85° | 104km/h | 9515m | -2.8m/s | 0°C | 0% | 0hPa | 0V | 00:00:00 | 00:00:00 | 00:00:00 | |
| DB0UT-7 | 2026-09-04 16:45:35 | 48.46347 | 4.58963 | 85° | 104km/h | 9596m | -2.5m/s | 0°C | 0% | 0hPa | 0V | 00:00:00 | 00:00:00 | 00:00:00 | |
| DB0UT-7 | 2026-09-04 16:45:05 | 48.46189 | 4.57812 | 82° | 104km/h | 9677m | -2.6m/s | 0°C | 0% | 0hPa | 0V | 00:00:00 | 00:00:00 | 00:00:00 | |
| DB0UT-7 | 2026-09-04 16:44:35 | 48.46023 | 4.56667 | 81° | 102km/h | 9758m | -2.5m/s | 0°C | 0% | 0hPa | 0V | 00:00:00 | 00:00:00 | 00:00:00 | |
| DB0UT-7 | 2026-09-04 16:44:05 | 48.45861 | 4.55534 | 79° | 104km/h | 9841m | -2.7m/s | 0°C | 0% | 0hPa | 0V | 00:00:00 | 00:00:00 | 00:00:00 | |
| DB0UT-7 | 2026-09-04 16:43:35 | 48.45708 | 4.54386 | 79° | 104km/h | 9924m | -2.7m/s | 0°C | 0% | 0hPa | 0V | 00:00:00 | 00:00:00 | 00:00:00 | |
| DB0UT-7 | 2026-09-04 16:43:05 | 48.45580 | 4.53224 | 80° | 104km/h | 10005m | -2.8m/s | 0°C | 0% | 0hPa | 0V | 00:00:00 | 00:00:00 | 00:00:00 | |
| DB0UT-7 | 2026-09-04 16:42:35 | 48.45462 | 4.52055 | 78° | 102km/h | 10086m | -2.6m/s | 0°C | 0% | 0hPa | 0V | 00:00:00 | 00:00:00 | 00:00:00 | |
| DB0UT-7 | 2026-09-04 16:42:05 | 48.45369 | 4.50903 | 79° | 99km/h | 10171m | -2.4m/s | 0°C | 0% | 0hPa | 0V | 00:00:00 | 00:00:00 | 00:00:00 | |
| DB0UT-7 | 2026-09-04 16:41:35 | 48.45294 | 4.49777 | 79° | 99km/h | 10254m | -2.7m/s | 0°C | 0% | 0hPa | 0V | 00:00:00 | 00:00:00 | 00:00:00 | |
| DB0UT-7 | 2026-09-04 16:41:05 | 48.45229 | 4.48669 | 79° | 95km/h | 10338m | -2.7m/s | 0°C | 0% | 0hPa | 0V | 00:00:00 | 00:00:00 | 00:00:00 | |
| DB0UT-7 | 2026-09-04 16:40:35 | 48.45162 | 4.47594 | 78° | 91km/h | 10422m | -2.7m/s | 0°C | 0% | 0hPa | 0V | 00:00:00 | 00:00:00 | 00:00:00 | |
| DB0UT-7 | 2026-09-04 16:40:05 | 48.45090 | 4.46564 | 77° | 88km/h | 10512m | -2.9m/s | 0°C | 0% | 0hPa | 0V | 00:00:00 | 00:00:00 | 00:00:00 | |
| DB0UT-7 | 2026-09-04 16:39:35 | 48.45033 | 4.45583 | 79° | 82km/h | 10603m | -3.0m/s | 0°C | 0% | 0hPa | 0V | 00:00:00 | 00:00:00 | 00:00:00 | |
| DB0UT-7 | 2026-09-04 16:39:05 | 48.45006 | 4.44663 | 79° | 82km/h | 10695m | -3.1m/s | 0°C | 0% | 0hPa | 0V | 00:00:00 | 00:00:00 | 00:00:00 | |
| DB0UT-7 | 2026-09-04 16:38:35 | 48.44973 | 4.43736 | 79° | 84km/h | 10787m | -3.1m/s | 0°C | 0% | 0hPa | 0V | 00:00:00 | 00:00:00 | 00:00:00 | |
| DB0UT-7 | 2026-09-04 16:38:05 | 48.44928 | 4.42785 | 78° | 84km/h | 10879m | -2.9m/s | 0°C | 0% | 0hPa | 0V | 00:00:00 | 00:00:00 | 00:00:00 | |
| DB0UT-7 | 2026-09-04 16:37:35 | 48.44890 | 4.41829 | 86° | 80km/h | 10964m | -2.7m/s | 0°C | 0% | 0hPa | 0V | 00:00:00 | 00:00:00 | 00:00:00 | |
| DB0UT-7 | 2026-09-04 16:37:05 | 48.44896 | 4.40916 | 92° | 73km/h | 11050m | -2.6m/s | 0°C | 0% | 0hPa | 0V | 00:00:00 | 00:00:00 | 00:00:00 | |
| DB0UT-7 | 2026-09-04 16:36:35 | 48.44919 | 4.40083 | 98° | 71km/h | 11137m | -2.8m/s | 0°C | 0% | 0hPa | 0V | 00:00:00 | 00:00:00 | 00:00:00 | |
| DB0UT-7 | 2026-09-04 16:36:05 | 48.44951 | 4.39275 | 104° | 68km/h | 11225m | -2.9m/s | 0°C | 0% | 0hPa | 0V | 00:00:00 | 00:00:00 | 00:00:00 | |
| DB0UT-7 | 2026-09-04 16:35:35 | 48.45004 | 4.38519 | 110° | 68km/h | 11313m | -2.9m/s | 0°C | 0% | 0hPa | 0V | 00:00:00 | 00:00:00 | 00:00:00 | |
| DB0UT-7 | 2026-09-04 16:34:35 | 48.45188 | 4.37037 | 112° | 66km/h | 11491m | -2.9m/s | 0°C | 0% | 0hPa | 0V | 00:00:00 | 00:00:00 | 00:00:00 | |
| DB0UT-7 | 2026-09-04 16:34:05 | 48.45257 | 4.36311 | 106° | 68km/h | 11579m | -2.8m/s | 0°C | 0% | 0hPa | 0V | 00:00:00 | 00:00:00 | 00:00:00 | |
| DB0UT-7 | 2026-09-04 16:33:35 | 48.45293 | 4.35558 | 98° | 68km/h | 11667m | -2.9m/s | 0°C | 0% | 0hPa | 0V | 00:00:00 | 00:00:00 | 00:00:00 | |
| DB0UT-7 | 2026-09-04 16:33:05 | 48.45303 | 4.34796 | 97° | 69km/h | 11757m | -3.0m/s | 0°C | 0% | 0hPa | 0V | 00:00:00 | 00:00:00 | 00:00:00 | |
| DB0UT-7 | 2026-09-04 16:32:35 | 48.45319 | 4.34007 | 91° | 71km/h | 11844m | -2.9m/s | 0°C | 0% | 0hPa | 0V | 00:00:00 | 00:00:00 | 00:00:00 | |
| DB0UT-7 | 2026-09-04 16:32:05 | 48.45334 | 4.33207 | 88° | 73km/h | 11933m | -2.9m/s | 0°C | 0% | 0hPa | 0V | 00:00:00 | 00:00:00 | 00:00:00 | |
| DB0UT-7 | 2026-09-04 16:31:35 | 48.45372 | 4.32382 | 88° | 75km/h | 12023m | -3.1m/s | 0°C | 0% | 0hPa | 0V | 00:00:00 | 00:00:00 | 00:00:00 | |
| DB0UT-7 | 2026-09-04 16:31:05 | 48.45423 | 4.31547 | 86° | 75km/h | 12115m | -3.1m/s | 0°C | 0% | 0hPa | 0V | 00:00:00 | 00:00:00 | 00:00:00 | |
| DB0UT-7 | 2026-09-04 16:30:35 | 48.45485 | 4.30706 | 86° | 77km/h | 12202m | -3.3m/s | 0°C | 0% | 0hPa | 0V | 00:00:00 | 00:00:00 | 00:00:00 | |
| DB0UT-7 | 2026-09-04 16:30:05 | 48.45528 | 4.29853 | 83° | 78km/h | 12298m | -2.7m/s | 0°C | 0% | 0hPa | 0V | 00:00:00 | 00:00:00 | 00:00:00 | |
| DM0DOS-11 | 2026-09-04 16:30:02 | 48.45535 | 4.29633 | 95° | 86km/h | 12322m | -3.2m/s | 0°C | 0% | 0hPa | 0V | 00:00:00 | 00:00:00 | 00:00:00 | |
| DB0UT-7 | 2026-09-04 16:29:35 | 48.45499 | 4.28968 | 72° | 78km/h | 12391m | -2.6m/s | 0°C | 0% | 0hPa | 2.2V | 00:00:00 | 00:00:00 | 00:00:00 | |
| DB0UT-7 | 2026-09-04 16:29:05 | 48.45389 | 4.28107 | 66° | 80km/h | 12476m | -2.7m/s | 0°C | 0% | 0hPa | 2.2V | 00:00:00 | 00:00:00 | 00:00:00 | |
| DB0UT-7 | 2026-09-04 16:28:35 | 48.45244 | 4.27214 | 66° | 84km/h | 12561m | -3.0m/s | 0°C | 0% | 0hPa | 2.2V | 00:00:00 | 00:00:00 | 00:00:00 | |
| DB0UT-7 | 2026-09-04 16:28:05 | 48.45100 | 4.26282 | 72° | 82km/h | 12651m | -2.9m/s | 0°C | 0% | 0hPa | 2.2V | 00:00:00 | 00:00:00 | 00:00:00 | |
| DB0UT-7 | 2026-09-04 16:27:35 | 48.44988 | 4.25369 | 81° | 84km/h | 12745m | -2.9m/s | 0°C | 0% | 0hPa | 2.2V | 00:00:00 | 00:00:00 | 00:00:00 | |
| DB0UT-7 | 2026-09-04 16:27:05 | 48.44881 | 4.24423 | 86° | 88km/h | 12840m | -2.9m/s | 0°C | 0% | 0hPa | 2.2V | 00:00:00 | 00:00:00 | 00:00:00 | |
| DB0UT-7 | 2026-09-04 16:26:35 | 48.44773 | 4.23437 | 87° | 91km/h | 12936m | -3.0m/s | 0°C | 0% | 0hPa | 2.2V | 00:00:00 | 00:00:00 | 00:00:00 | |
| DB0UT-7 | 2026-09-04 16:26:05 | 48.44649 | 4.22435 | 88° | 91km/h | 13028m | -3.0m/s | 0°C | 0% | 0hPa | 2.2V | 00:00:00 | 00:00:00 | 00:00:00 | |
| DB0UT-7 | 2026-09-04 16:25:35 | 48.44524 | 4.21404 | 90° | 93km/h | 13122m | -3.1m/s | 0°C | 0% | 0hPa | 2.2V | 00:00:00 | 00:00:00 | 00:00:00 | |
| DB0UT-7 | 2026-09-04 16:25:05 | 48.44402 | 4.20371 | 90° | 91km/h | 13214m | -3.0m/s | 0°C | 0% | 0hPa | 2.2V | 00:00:00 | 00:00:00 | 00:00:00 | |
| DB0UT-7 | 2026-09-04 16:24:35 | 48.44294 | 4.19345 | 91° | 88km/h | 13308m | -3.0m/s | 0°C | 0% | 0hPa | 2.2V | 00:00:00 | 00:00:00 | 00:00:00 | |
| DB0UT-7 | 2026-09-04 16:24:05 | 48.44190 | 4.18382 | 90° | 86km/h | 13403m | -3.2m/s | 0°C | 0% | 0hPa | 2.2V | 00:00:00 | 00:00:00 | 00:00:00 | |
| BIOWL1-15 | 2026-09-04 16:23:27 | 48.44047 | 4.17137 | 76° | 80km/h | 13531m | -3.1m/s | -60.2°C | 0% | 163.3hPa | 2.2V | 00:00:00 | 00:00:00 | 00:00:00 | |
| BIOWL1-15 | 2026-09-04 16:23:13 | 48.44015 | 4.16641 | 76° | 86km/h | 13581m | -3.5m/s | -60.4°C | 0% | 162hPa | 2.2V | 00:00:00 | 00:00:00 | 00:00:00 | |
| DB0UT-7 | 2026-09-04 16:23:05 | 48.44010 | 4.16373 | 90° | 97km/h | 13610m | -3.5m/s | 0°C | 0% | 0hPa | 2.2V | 00:00:00 | 00:00:00 | 00:00:00 | |
| BIOWL1-15 | 2026-09-04 16:22:51 | 48.43957 | 4.15626 | 76° | 99km/h | 13682m | -3.5m/s | -60.9°C | 0% | 159.3hPa | 2.2V | 00:00:00 | 00:00:00 | 00:00:00 | |
| DB0UT-7 | 2026-09-04 16:22:35 | 48.43943 | 4.15278 | 87° | 95km/h | 13718m | -3.6m/s | 0°C | 0% | 0hPa | 2.2V | 00:00:00 | 00:00:00 | 00:00:00 | |
| DB0UT-7 | 2026-09-04 16:22:05 | 48.43827 | 4.14207 | 78° | 95km/h | 13833m | -3.6m/s | 0°C | 0% | 0hPa | 2.2V | 00:00:00 | 00:00:00 | 00:00:00 | |
| DB0UT-7 | 2026-09-04 16:21:34 | 48.43696 | 4.13118 | 76° | 93km/h | 13950m | -3.5m/s | 0°C | 0% | 0hPa | 2.2V | 00:00:00 | 00:00:00 | 00:00:00 | |
| DB0UT-7 | 2026-09-04 16:21:04 | 48.43611 | 4.12086 | 78° | 84km/h | 14064m | -3.4m/s | 0°C | 0% | 0hPa | 2.2V | 00:00:00 | 00:00:00 | 00:00:00 | |
| DB0UT-7 | 2026-09-04 16:20:04 | 48.43557 | 4.10181 | 83° | 84km/h | 14289m | -3.6m/s | 0°C | 0% | 0hPa | 2.2V | 00:00:00 | 00:00:00 | 00:00:00 | |
| BIOWL1-15 | 2026-09-04 16:19:39 | 48.43516 | 4.09380 | 72° | 91km/h | 14379m | -3.7m/s | -61.3°C | 0% | 142.1hPa | 2.2V | 00:00:00 | 00:00:00 | 00:00:00 | |
| BIOWL1-15 | 2026-09-04 16:19:22 | 48.43460 | 4.08853 | 78° | 69km/h | 14440m | -3.3m/s | -59.9°C | 0% | 140.7hPa | 2.2V | 00:00:00 | 00:00:00 | 00:00:00 | |
| BIOWL1-15 | 2026-09-04 16:19:06 | 48.43438 | 4.08344 | 93° | 68km/h | 14494m | -3.4m/s | -60.2°C | 0% | 139.4hPa | 2.2V | 00:00:00 | 00:00:00 | 00:00:00 | |
| BIOWL1-15 | 2026-09-04 16:18:55 | 48.43439 | 4.07908 | 90° | 68km/h | 14540m | -3.6m/s | -60.3°C | 0% | 138.4hPa | 2.2V | 00:00:00 | 00:00:00 | 00:00:00 | |
| BIOWL1-15 | 2026-09-04 16:18:28 | 48.43482 | 4.07064 | 80° | 89km/h | 14631m | -3.6m/s | -61.2°C | 0% | 136.4hPa | 2.2V | 00:00:00 | 00:00:00 | 00:00:00 | |
| DM0DOS-11 | 2026-09-04 16:18:26 | 48.43485 | 4.06862 | 102° | 91km/h | 14656m | -3.5m/s | 0°C | 0% | 0hPa | 0V | 00:00:00 | 00:00:00 | 00:00:00 | |
| BIOWL1-15 | 2026-09-04 16:18:17 | 48.43496 | 4.06706 | 88° | 110km/h | 14671m | -4m/s | -61°C | 0% | 135.4hPa | 2.2V | 00:00:00 | 00:00:00 | 00:00:00 | |
| BIOWL1-15 | 2026-09-04 16:18:01 | 48.43472 | 4.06102 | 74° | 82km/h | 14740m | -3.9m/s | -60.2°C | 0% | 133.9hPa | 2.2V | 00:00:00 | 00:00:00 | 00:00:00 | |
| BIOWL1-15 | 2026-09-04 16:17:48 | 48.43475 | 4.05766 | 83° | 100km/h | 14783m | -3.9m/s | -60.4°C | 0% | 132.9hPa | 2.2V | 00:00:00 | 00:00:00 | 00:00:00 | |
| BIOWL1-15 | 2026-09-04 16:17:37 | 48.43453 | 4.05446 | 96° | 93km/h | 14827m | -4.2m/s | -60.4°C | 0% | 132hPa | 2.2V | 00:00:00 | 00:00:00 | 00:00:00 | |
| BIOWL1-15 | 2026-09-04 16:17:26 | 48.43414 | 4.05104 | 94° | 69km/h | 14871m | -3.9m/s | -60.4°C | 0% | 131.1hPa | 2.2V | 00:00:00 | 00:00:00 | 00:00:00 | |
| BIOWL1-15 | 2026-09-04 16:17:11 | 48.43380 | 4.04640 | 97° | 77km/h | 14931m | -3.8m/s | -60.4°C | 0% | 129.8hPa | 2.2V | 00:00:00 | 00:00:00 | 00:00:00 | |
| BIOWL1-15 | 2026-09-04 16:17:02 | 48.43347 | 4.04274 | 82° | 66km/h | 14975m | -4.1m/s | -60.6°C | 0% | 128.8hPa | 2.2V | 00:00:00 | 00:00:00 | 00:00:00 | |
| BIOWL1-15 | 2026-09-04 16:16:46 | 48.43311 | 4.03831 | 83° | 62km/h | 15032m | -4m/s | -60.5°C | 0% | 127.7hPa | 2.2V | 00:00:00 | 00:00:00 | 00:00:00 | |
| BIOWL1-15 | 2026-09-04 16:16:36 | 48.43267 | 4.03394 | 82° | 62km/h | 15088m | -3.8m/s | -60.5°C | 0% | 126.5hPa | 2.2V | 00:00:00 | 00:00:00 | 00:00:00 | |
| DB0UT-7 | 2026-09-04 16:16:34 | 48.43276 | 4.03442 | 69° | 82km/h | 15080m | -4.0m/s | 0°C | 0% | 0hPa | 2.2V | 00:00:00 | 00:00:00 | 00:00:00 | |
| DB0UT-7 | 2026-09-04 16:16:04 | 48.43170 | 4.02536 | 78° | 77km/h | 15199m | -4.2m/s | 0°C | 0% | 0hPa | 2.2V | 00:00:00 | 00:00:00 | 00:00:00 | |
| DB0UT-7 | 2026-09-04 16:15:34 | 48.43096 | 4.01680 | 102° | 77km/h | 15319m | -4.2m/s | 0°C | 0% | 0hPa | 2.2V | 00:00:00 | 00:00:00 | 00:00:00 | |
| DB0UT-7 | 2026-09-04 16:15:04 | 48.43082 | 4.00816 | 99° | 80km/h | 15443m | -4.3m/s | 0°C | 0% | 0hPa | 2.2V | 00:00:00 | 00:00:00 | 00:00:00 | |
| DB0UT-7 | 2026-09-04 16:14:34 | 48.43075 | 3.99923 | 86° | 77km/h | 15571m | -4.2m/s | 0°C | 0% | 0hPa | 2.2V | 00:00:00 | 00:00:00 | 00:00:00 | |
| DB0UT-7 | 2026-09-04 16:14:04 | 48.43015 | 3.99075 | 70° | 77km/h | 15701m | -4.2m/s | 0°C | 0% | 0hPa | 2.2V | 00:00:00 | 00:00:00 | 00:00:00 | |
| DB0UT-7 | 2026-09-04 16:13:34 | 48.42986 | 3.98226 | 76° | 73km/h | 15835m | -4.5m/s | 0°C | 0% | 0hPa | 2.2V | 00:00:00 | 00:00:00 | 00:00:00 | |
| DB0UT-7 | 2026-09-04 16:13:04 | 48.42976 | 3.97399 | 102° | 71km/h | 15970m | -4.5m/s | 0°C | 0% | 0hPa | 2.2V | 00:00:00 | 00:00:00 | 00:00:00 | |
| DB0UT-7 | 2026-09-04 16:12:34 | 48.43014 | 3.96599 | 111° | 66km/h | 16106m | -4.7m/s | 0°C | 0% | 0hPa | 2.2V | 00:00:00 | 00:00:00 | 00:00:00 | |
| BIOWL1-15 | 2026-09-04 16:11:54 | 48.43037 | 3.95635 | 112° | 58km/h | 16290m | -4.5m/s | -60.2°C | 0% | 103.9hPa | 2.2V | 00:00:00 | 00:00:00 | 00:00:00 | |
| BIOWL1-15 | 2026-09-04 16:11:34 | 48.43043 | 3.95160 | 73° | 69km/h | 16382m | -4.5m/s | -60°C | 0% | 102.4hPa | 2.2V | 00:00:00 | 00:00:00 | 00:00:00 | |
| DB0UT-7 | 2026-09-04 16:11:34 | 48.43043 | 3.95160 | 73° | 57km/h | 16382m | -4.5m/s | 0°C | 0% | 0hPa | 2.2V | 00:00:00 | 00:00:00 | 00:00:00 | |
| DB0UT-7 | 2026-09-04 16:11:04 | 48.42998 | 3.94548 | 60° | 55km/h | 16523m | -4.5m/s | 0°C | 0% | 0hPa | 2.2V | 00:00:00 | 00:00:00 | 00:00:00 | |
| DB0UT-7 | 2026-09-04 16:10:34 | 48.43002 | 3.93951 | 110° | 53km/h | 16663m | -4.9m/s | 0°C | 0% | 0hPa | 2.2V | 00:00:00 | 00:00:00 | 00:00:00 | |
| BIOWL1-15 | 2026-09-04 16:10:10 | 48.43028 | 3.93457 | 67° | 53km/h | 16776m | -5.2m/s | -60.2°C | 0% | 96hPa | 2.2V | 00:00:00 | 00:00:00 | 00:00:00 | |
| BIOWL1-15 | 2026-09-04 16:09:55 | 48.43039 | 3.93169 | 70° | 38km/h | 16848m | -4.7m/s | -59.8°C | 0% | 94.8hPa | 2.2V | 00:00:00 | 00:00:00 | 00:00:00 | |
| DB0UT-7 | 2026-09-04 16:09:34 | 48.43104 | 3.92774 | 110° | 57km/h | 16949m | -5.0m/s | 0°C | 0% | 0hPa | 2.2V | 00:00:00 | 00:00:00 | 00:00:00 | |
| DB0UT-7 | 2026-09-04 16:09:04 | 48.43199 | 3.92183 | 82° | 47km/h | 17098m | -5.1m/s | 0°C | 0% | 0hPa | 2.2V | 00:00:00 | 00:00:00 | 00:00:00 | |
| DB0UT-7 | 2026-09-04 16:08:34 | 48.43227 | 3.91683 | 59° | 49km/h | 17248m | -5.6m/s | 0°C | 0% | 0hPa | 2.2V | 00:00:00 | 00:00:00 | 00:00:00 | |
| DB0UT-7 | 2026-09-04 16:08:04 | 48.43212 | 3.91167 | 102° | 62km/h | 17403m | -4.4m/s | 0°C | 0% | 0hPa | 2.2V | 00:00:00 | 00:00:00 | 00:00:00 | |
| DB0UT-7 | 2026-09-04 16:07:34 | 48.43203 | 3.90497 | 119° | 58km/h | 17559m | -5.4m/s | 0°C | 0% | 0hPa | 2.2V | 00:00:00 | 00:00:00 | 00:00:00 | |
| DB0UT-7 | 2026-09-04 16:07:04 | 48.43330 | 3.89936 | 101° | 42km/h | 17717m | -4.9m/s | 0°C | 0% | 0hPa | 2.2V | 00:00:00 | 00:00:00 | 00:00:00 | |
| DB0UT-7 | 2026-09-04 16:06:34 | 48.43388 | 3.89548 | 49° | 38km/h | 17877m | -5.2m/s | 0°C | 0% | 0hPa | 2.2V | 00:00:00 | 00:00:00 | 00:00:00 | |
| DB0UT-7 | 2026-09-04 16:06:04 | 48.43369 | 3.89212 | 37° | 42km/h | 18036m | -5.1m/s | 0°C | 0% | 0hPa | 2.2V | 00:00:00 | 00:00:00 | 00:00:00 | |
| DB0UT-7 | 2026-09-04 16:05:34 | 48.43364 | 3.88787 | 129° | 51km/h | 18196m | -4.5m/s | 0°C | 0% | 0hPa | 2.2V | 00:00:00 | 00:00:00 | 00:00:00 | |
| DB0UT-7 | 2026-09-04 16:05:04 | 48.43419 | 3.88251 | 112° | 53km/h | 18353m | -5.7m/s | 0°C | 0% | 0hPa | 2.2V | 00:00:00 | 00:00:00 | 00:00:00 | |
| DB0UT-7 | 2026-09-04 16:04:33 | 48.43490 | 3.87676 | 71° | 46km/h | 18521m | -5.4m/s | 0°C | 0% | 0hPa | 2.2V | 00:00:00 | 00:00:00 | 00:00:00 | |
| DB0UT-7 | 2026-09-04 16:04:03 | 48.43493 | 3.87251 | 31° | 38km/h | 18687m | -5.6m/s | 0°C | 0% | 0hPa | 2.2V | 00:00:00 | 00:00:00 | 00:00:00 | |
| DB0UT-7 | 2026-09-04 16:03:33 | 48.43479 | 3.86924 | 143° | 46km/h | 18859m | -5.4m/s | 0°C | 0% | 0hPa | 2.2V | 00:00:00 | 00:00:00 | 00:00:00 | |
| DB0UT-7 | 2026-09-04 16:03:02 | 48.43410 | 3.86479 | 92° | 55km/h | 19042m | -5.4m/s | 0°C | 0% | 0hPa | 2.2V | 00:00:00 | 00:00:00 | 00:00:00 | |
| DB0UT-7 | 2026-09-04 16:02:32 | 48.43407 | 3.85934 | 71° | 46km/h | 19225m | -6.1m/s | 0°C | 0% | 0hPa | 2.2V | 00:00:00 | 00:00:00 | 00:00:00 | |
| BIOWL1-15 | 2026-09-04 16:02:05 | 48.43396 | 3.85514 | 38° | 11km/h | 19412m | -5.4m/s | -55.1°C | 0% | 62.5hPa | 2.2V | 00:00:00 | 00:00:00 | 00:00:00 | |
| DB0UT-7 | 2026-09-04 16:02:02 | 48.43399 | 3.85518 | 27° | 44km/h | 19407m | -5.7m/s | 0°C | 0% | 0hPa | 2.2V | 00:00:00 | 00:00:00 | 00:00:00 | |
| BIOWL1-15 | 2026-09-04 16:01:33 | 48.43403 | 3.85107 | 146° | 24km/h | 19581m | -6.2m/s | -54.5°C | 0% | 60.9hPa | 2.2V | 00:00:00 | 00:00:00 | 00:00:00 | |
| DB0UT-7 | 2026-09-04 16:01:32 | 48.43409 | 3.85099 | 140° | 47km/h | 19587m | -5.4m/s | 0°C | 0% | 0hPa | 2.2V | 00:00:00 | 00:00:00 | 00:00:00 | |
| BIOWL1-15 | 2026-09-04 16:00:52 | 48.43550 | 3.84627 | 175° | 47km/h | 19839m | -6.8m/s | -54.8°C | 0% | 58.4hPa | 2.2V | 00:00:00 | 00:00:00 | 00:00:00 | |
| DB0UT-7 | 2026-09-04 16:00:31 | 48.43589 | 3.84410 | 37° | 42km/h | 19978m | -6.6m/s | 0°C | 0% | 0hPa | 2.2V | 00:00:00 | 00:00:00 | 00:00:00 | |
| BIOWL1-15 | 2026-09-04 16:00:00 | 48.43556 | 3.84052 | 180° | 15km/h | 20188m | -6.6m/s | -54.9°C | 0% | 55.1hPa | 2.2V | 00:00:00 | 00:00:00 | 00:00:00 | |
| DB0UT-7 | 2026-09-04 15:59:31 | 48.43607 | 3.83769 | 133° | 51km/h | 20390m | -6.6m/s | 0°C | 0% | 0hPa | 2.5V | 00:00:00 | 00:00:00 | 00:00:00 | |
| DB0UT-7 | 2026-09-04 15:59:01 | 48.43707 | 3.83305 | 84° | 42km/h | 20605m | -6.6m/s | 0°C | 0% | 0hPa | 2.5V | 00:00:00 | 00:00:00 | 00:00:00 | |
| DB0UT-7 | 2026-09-04 15:58:31 | 48.43751 | 3.83056 | 320° | 37km/h | 20814m | -6.9m/s | 0°C | 0% | 0hPa | 2.5V | 00:00:00 | 00:00:00 | 00:00:00 | |
| DB0UT-7 | 2026-09-04 15:58:01 | 48.43739 | 3.82974 | 179° | 40km/h | 21031m | -7.7m/s | 0°C | 0% | 0hPa | 2.5V | 00:00:00 | 00:00:00 | 00:00:00 | |
| DB0UT-7 | 2026-09-04 15:57:31 | 48.43673 | 3.82801 | 73° | 42km/h | 21243m | -6.8m/s | 0°C | 0% | 0hPa | 2.5V | 00:00:00 | 00:00:00 | 00:00:00 | |
| DB0UT-7 | 2026-09-04 15:57:01 | 48.43689 | 3.82553 | 335° | 44km/h | 21462m | -6.7m/s | 0°C | 0% | 0hPa | 2.5V | 00:00:00 | 00:00:00 | 00:00:00 | |
| DB0UT-7 | 2026-09-04 15:56:29 | 48.43645 | 3.82413 | 112° | 46km/h | 21695m | -7.6m/s | 0°C | 0% | 0hPa | 2.5V | 00:00:00 | 00:00:00 | 00:00:00 | |
| DB0UT-7 | 2026-09-04 15:55:58 | 48.43556 | 3.82167 | 360° | 44km/h | 21935m | -8.3m/s | 0°C | 0% | 0hPa | 2.5V | 00:00:00 | 00:00:00 | 00:00:00 | |
| DB0UT-7 | 2026-09-04 15:55:28 | 48.43498 | 3.82042 | 178° | 46km/h | 22175m | -7.9m/s | 0°C | 0% | 0hPa | 2.5V | 00:00:00 | 00:00:00 | 00:00:00 | |
| DB0UT-7 | 2026-09-04 15:53:46 | 48.43534 | 3.81795 | 128° | 47km/h | 23047m | -9.2m/s | 0°C | 0% | 0hPa | 2.5V | 00:00:00 | 00:00:00 | 00:00:00 | |
| DB0UT-7 | 2026-09-04 15:53:15 | 48.43517 | 3.81604 | 281° | 42km/h | 23325m | -9.3m/s | 0°C | 0% | 0hPa | 2.5V | 00:00:00 | 00:00:00 | 00:00:00 | |
| DB0UT-7 | 2026-09-04 15:52:36 | 48.43639 | 3.81636 | 220° | 49km/h | 23688m | -9.0m/s | 0°C | 0% | 0hPa | 2.5V | 00:00:00 | 00:00:00 | 00:00:00 | |
| DB0UT-7 | 2026-09-04 15:52:06 | 48.43590 | 3.81592 | 32° | 47km/h | 23975m | -10.2m/s | 0°C | 0% | 0hPa | 2.5V | 00:00:00 | 00:00:00 | 00:00:00 | |
| DB0UT-7 | 2026-09-04 15:51:30 | 48.43701 | 3.81494 | 22° | 49km/h | 24334m | -10.3m/s | 0°C | 0% | 0hPa | 2.5V | 00:00:00 | 00:00:00 | 00:00:00 | |
| DB0UT-7 | 2026-09-04 15:50:58 | 48.43830 | 3.81549 | 126° | 49km/h | 24661m | -10.0m/s | 0°C | 0% | 0hPa | 2.5V | 00:00:00 | 00:00:00 | 00:00:00 | |
| DB0UT-7 | 2026-09-04 15:50:28 | 48.43966 | 3.81562 | 246° | 53km/h | 24979m | -10.7m/s | 0°C | 0% | 0hPa | 2.5V | 00:00:00 | 00:00:00 | 00:00:00 | |
| DB0UT-7 | 2026-09-04 15:49:56 | 48.44066 | 3.81518 | 359° | 53km/h | 25330m | -11.2m/s | 0°C | 0% | 0hPa | 2.5V | 00:00:00 | 00:00:00 | 00:00:00 | |
| DB0UT-7 | 2026-09-04 15:49:24 | 48.44161 | 3.81694 | 68° | 55km/h | 25696m | -9.7m/s | 0°C | 0% | 0hPa | 2.5V | 00:00:00 | 00:00:00 | 00:00:00 | |
| DB0UT-7 | 2026-09-04 15:48:53 | 48.44162 | 3.81756 | 170° | 55km/h | 26055m | -12.3m/s | 0°C | 0% | 0hPa | 2.5V | 00:00:00 | 00:00:00 | 00:00:00 | |
| DB0UT-7 | 2026-09-04 15:48:22 | 48.44106 | 3.81673 | 244° | 53km/h | 26435m | -10.9m/s | 0°C | 0% | 0hPa | 2.5V | 00:00:00 | 00:00:00 | 00:00:00 | |
| DB0UT-7 | 2026-09-04 15:47:47 | 48.44110 | 3.81805 | 194° | 57km/h | 26886m | -12.3m/s | 0°C | 0% | 0hPa | 2.5V | 00:00:00 | 00:00:00 | 00:00:00 | |
| DB0UT-7 | 2026-09-04 15:47:11 | 48.44009 | 3.81823 | 66° | 68km/h | 27368m | -13.0m/s | 0°C | 0% | 0hPa | 2.5V | 00:00:00 | 00:00:00 | 00:00:00 | |
| DB0UT-7 | 2026-09-04 15:46:01 | 48.43895 | 3.81570 | 220° | 60km/h | 28395m | -14.9m/s | 0°C | 0% | 0hPa | 2.5V | 00:00:00 | 00:00:00 | 00:00:00 | |
| DB0UT-7 | 2026-09-04 15:45:24 | 48.43914 | 3.81307 | 33° | 62km/h | 28984m | -15.4m/s | 0°C | 0% | 0hPa | 2.5V | 00:00:00 | 00:00:00 | 00:00:00 | |
| DB0UT-7 | 2026-09-04 15:44:50 | 48.43987 | 3.81176 | 219° | 60km/h | 29542m | -16.7m/s | 0°C | 0% | 0hPa | 2.5V | 00:00:00 | 00:00:00 | 00:00:00 | |
| DB0UT-7 | 2026-09-04 15:44:16 | 48.44099 | 3.80972 | 105° | 62km/h | 30133m | -15.7m/s | 0°C | 0% | 0hPa | 2.5V | 00:00:00 | 00:00:00 | 00:00:00 | |
| DB0UT-7 | 2026-09-04 15:43:33 | 48.44203 | 3.80647 | 37° | 51km/h | 30913m | -18.2m/s | 0°C | 0% | 0hPa | 2.5V | 00:00:00 | 00:00:00 | 00:00:00 | |
| DB0UT-7 | 2026-09-04 15:42:54 | 48.44206 | 3.80411 | 153° | 53km/h | 31658m | -23.1m/s | 0°C | 0% | 0hPa | 2.5V | 00:00:00 | 00:00:00 | 00:00:00 | |
| DB0UT-7 | 2026-09-04 15:42:23 | 48.44243 | 3.80065 | 55° | 35km/h | 32252m | -17.4m/s | 0°C | 0% | 0hPa | 2.5V | 00:00:00 | 00:00:00 | 00:00:00 | |
| DB0UT-7 | 2026-09-04 15:41:53 | 48.44178 | 3.79968 | 77° | 26km/h | 32823m | -21.7m/s | 0°C | 0% | 0hPa | 2.5V | 00:00:00 | 00:00:00 | 00:00:00 | |
| DB0UT-7 | 2026-09-04 15:41:23 | 48.44153 | 3.79931 | 267° | 20km/h | 33617m | 10.2m/s | 0°C | 0% | 0hPa | 2.5V | 00:00:00 | 00:00:00 | 00:00:00 | |
| DB0UT-7 | 2026-09-04 15:40:53 | 48.44141 | 3.79912 | 168° | 20km/h | 33416m | 6.8m/s | 0°C | 0% | 0hPa | 2.5V | 00:00:00 | 00:00:00 | 00:00:00 | |
| BIOWL1-15 | 2026-09-04 15:40:09 | 48.44158 | 3.79837 | 146° | 37km/h | 33106m | 3.5m/s | -34.6°C | 0% | 6hPa | 2.5V | 00:00:00 | 00:00:00 | 00:00:00 | |
| DB0UT-7 | 2026-09-04 15:39:53 | 48.44168 | 3.79755 | 74° | 22km/h | 33017m | 5.7m/s | 0°C | 0% | 0hPa | 2.4V | 00:00:00 | 00:00:00 | 00:00:00 | |
| DB0UT-7 | 2026-09-04 15:39:23 | 48.44112 | 3.79590 | 50° | 22km/h | 32823m | 5.7m/s | 0°C | 0% | 0hPa | 2.4V | 00:00:00 | 00:00:00 | 00:00:00 | |
| DB0UT-7 | 2026-09-04 15:38:53 | 48.43997 | 3.79456 | 4° | 16km/h | 32619m | 7.9m/s | 0°C | 0% | 0hPa | 2.4V | 00:00:00 | 00:00:00 | 00:00:00 | |
| DB0UT-7 | 2026-09-04 15:38:23 | 48.43942 | 3.79340 | 118° | 22km/h | 32423m | 7.6m/s | 0°C | 0% | 0hPa | 2.4V | 00:00:00 | 00:00:00 | 00:00:00 | |
| DB0UT-7 | 2026-09-04 15:37:53 | 48.43990 | 3.79108 | 75° | 22km/h | 32231m | 5.4m/s | 0°C | 0% | 0hPa | 2.4V | 00:00:00 | 00:00:00 | 00:00:00 | |
| BIOWL1-15 | 2026-09-04 15:37:23 | 48.44010 | 3.78871 | 52° | 22km/h | 32014m | 6.4m/s | -38.6°C | 0% | 7.4hPa | 2.4V | 00:00:00 | 00:00:00 | 00:00:00 | |
| DB0UT-7 | 2026-09-04 15:37:23 | 48.44015 | 3.78883 | 69° | 24km/h | 32029m | 7.4m/s | 0°C | 0% | 0hPa | 2.4V | 00:00:00 | 00:00:00 | 00:00:00 | |
| BIOWL1-15 | 2026-09-04 15:36:45 | 48.44026 | 3.78534 | 96° | 27km/h | 31755m | 7.3m/s | -38.9°C | 0% | 7.8hPa | 2.4V | 00:00:00 | 00:00:00 | 00:00:00 | |
| DO3DL | 2026-09-04 15:36:04 | 44.24592 | 3.25719 | 32° | 42km/h | 31496m | 7.6m/s | 0°C | 0% | 0hPa | 2.4V | 00:00:00 | 00:00:00 | 00:00:00 | |
| BIOWL1-15 | 2026-09-04 15:35:59 | 48.44020 | 3.78114 | 67° | 9km/h | 31459m | 6.3m/s | -39.7°C | 0% | 8.2hPa | 2.4V | 00:00:00 | 00:00:00 | 00:00:00 | |
| BIOWL1-15 | 2026-09-04 15:35:37 | 48.43998 | 3.77954 | 97° | 22km/h | 31308m | 6.2m/s | -39.9°C | 0% | 8.4hPa | 2.4V | 00:00:00 | 00:00:00 | 00:00:00 | |
| DB0UT-7 | 2026-09-04 15:35:23 | 48.43985 | 3.77855 | 81° | 13km/h | 31215m | 5.3m/s | 0°C | 0% | 0hPa | 2.4V | 00:00:00 | 00:00:00 | 00:00:00 | |
| DB0UT-7 | 2026-09-04 15:34:53 | 48.44023 | 3.77759 | 103° | 16km/h | 31012m | 6.1m/s | 0°C | 0% | 0hPa | 2.4V | 00:00:00 | 00:00:00 | 00:00:00 | |
| DB0UT-7 | 2026-09-04 15:34:23 | 48.44091 | 3.77634 | 139° | 22km/h | 30812m | 5.3m/s | 0°C | 0% | 0hPa | 2.4V | 00:00:00 | 00:00:00 | 00:00:00 | |
| DB0UT-7 | 2026-09-04 15:33:53 | 48.44172 | 3.77432 | 71° | 20km/h | 30618m | 8.0m/s | 0°C | 0% | 0hPa | 2.4V | 00:00:00 | 00:00:00 | 00:00:00 | |
| DB0UT-7 | 2026-09-04 15:33:23 | 48.44254 | 3.77305 | 141° | 20km/h | 30424m | 6.8m/s | 0°C | 0% | 0hPa | 2.4V | 00:00:00 | 00:00:00 | 00:00:00 | |
| DB0UT-7 | 2026-09-04 15:32:53 | 48.44310 | 3.77115 | 125° | 15km/h | 30239m | 4.7m/s | 0°C | 0% | 0hPa | 2.4V | 00:00:00 | 00:00:00 | 00:00:00 | |
| DB0UT-7 | 2026-09-04 15:32:23 | 48.44381 | 3.76994 | 153° | 15km/h | 30055m | 3.5m/s | 0°C | 0% | 0hPa | 2.4V | 00:00:00 | 00:00:00 | 00:00:00 | |
| DB0UT-7 | 2026-09-04 15:31:53 | 48.44387 | 3.76851 | 34° | 15km/h | 29875m | 8.8m/s | 0°C | 0% | 0hPa | 2.4V | 00:00:00 | 00:00:00 | 00:00:00 | |
| DB0UT-7 | 2026-09-04 15:31:23 | 48.44381 | 3.76717 | 119° | 16km/h | 29703m | 7.7m/s | 0°C | 0% | 0hPa | 2.4V | 00:00:00 | 00:00:00 | 00:00:00 | |
| BIOWL1-15 | 2026-09-04 15:31:06 | 48.44436 | 3.76616 | 114° | 18km/h | 29559m | 3.4m/s | -43.8°C | 0% | 11.6hPa | 2.4V | 00:00:00 | 00:00:00 | 00:00:00 | |
| BIOWL1-15 | 2026-09-04 15:30:46 | 48.44457 | 3.76531 | 72° | 5km/h | 29461m | 7.8m/s | -44°C | 0% | 11.8hPa | 2.4V | 00:00:00 | 00:00:00 | 00:00:00 | |
| DB0UT-7 | 2026-09-04 15:30:23 | 48.44469 | 3.76440 | 92° | 24km/h | 29328m | 8.1m/s | 0°C | 0% | 0hPa | 2.4V | 00:00:00 | 00:00:00 | 00:00:00 | |
| DB0UT-7 | 2026-09-04 15:29:53 | 48.44577 | 3.76245 | 109° | 27km/h | 29137m | 5.9m/s | 0°C | 0% | 0hPa | 2.4V | 00:00:00 | 00:00:00 | 00:00:00 | |
| DB0UT-7 | 2026-09-04 15:29:23 | 48.44640 | 3.75983 | 133° | 26km/h | 28936m | 7.1m/s | 0°C | 0% | 0hPa | 2.4V | 00:00:00 | 00:00:00 | 00:00:00 | |
| BIOWL1-15 | 2026-09-04 15:28:57 | 48.44587 | 3.75733 | 26° | 24km/h | 28733m | 7.2m/s | -44.2°C | 0% | 13.4hPa | 2.4V | 00:00:00 | 00:00:00 | 00:00:00 | |
| BIOWL1-15 | 2026-09-04 15:28:38 | 48.44531 | 3.75645 | 34° | 9km/h | 28622m | 6.5m/s | -44.2°C | 0% | 13.7hPa | 2.4V | 00:00:00 | 00:00:00 | 00:00:00 | |
| BIOWL1-15 | 2026-09-04 15:28:32 | 48.44498 | 3.75609 | 7° | 9km/h | 28546m | 8.3m/s | -44.1°C | 0% | 13.8hPa | 2.4V | 00:00:00 | 00:00:00 | 00:00:00 | |
| DB0UT-7 | 2026-09-04 15:28:23 | 48.44493 | 3.75612 | 339° | 13km/h | 28524m | 6.2m/s | 0°C | 0% | 0hPa | 2.4V | 00:00:00 | 00:00:00 | 00:00:00 | |
| BIOWL1-15 | 2026-09-04 15:27:55 | 48.44491 | 3.75495 | 89° | 15km/h | 28328m | 6.8m/s | -43.9°C | 0% | 14.3hPa | 2.4V | 00:00:00 | 00:00:00 | 00:00:00 | |
| DB0UT-7 | 2026-09-04 15:27:53 | 48.44491 | 3.75495 | 90° | 18km/h | 28328m | 6.7m/s | 0°C | 0% | 0hPa | 2.4V | 00:00:00 | 00:00:00 | 00:00:00 | |
| DB0UT-7 | 2026-09-04 15:27:23 | 48.44496 | 3.75295 | 94° | 22km/h | 28142m | 6.8m/s | 0°C | 0% | 0hPa | 2.4V | 00:00:00 | 00:00:00 | 00:00:00 | |
| DB0UT-7 | 2026-09-04 15:26:53 | 48.44496 | 3.75046 | 94° | 13km/h | 27960m | 4.4m/s | 0°C | 0% | 0hPa | 2.4V | 00:00:00 | 00:00:00 | 00:00:00 | |
| DB0UT-7 | 2026-09-04 15:26:23 | 48.44468 | 3.74951 | 62° | 9km/h | 27787m | 5.0m/s | 0°C | 0% | 0hPa | 2.4V | 00:00:00 | 00:00:00 | 00:00:00 | |
| DB0UT-7 | 2026-09-04 15:25:53 | 48.44439 | 3.74938 | 84° | 16km/h | 27615m | 6.1m/s | 0°C | 0% | 0hPa | 2.4V | 00:00:00 | 00:00:00 | 00:00:00 | |
| BIOWL1-15 | 2026-09-04 15:25:13 | 48.44307 | 3.74728 | 21° | 16km/h | 27358m | 4.9m/s | -46.9°C | 0% | 17hPa | 2.4V | 00:00:00 | 00:00:00 | 00:00:00 | |
| DB0UT-7 | 2026-09-04 15:24:53 | 48.44224 | 3.74705 | 10° | 20km/h | 27262m | 7.3m/s | 0°C | 0% | 0hPa | 2.4V | 00:00:00 | 00:00:00 | 00:00:00 | |
| DB0UT-7 | 2026-09-04 15:24:23 | 48.44107 | 3.74825 | 341° | 13km/h | 27080m | 5.4m/s | 0°C | 0% | 0hPa | 2.4V | 00:00:00 | 00:00:00 | 00:00:00 | |
| DB0UT-7 | 2026-09-04 15:23:53 | 48.44048 | 3.74921 | 290° | 16km/h | 26886m | 6.3m/s | 0°C | 0% | 0hPa | 2.4V | 00:00:00 | 00:00:00 | 00:00:00 | |
| DB0UT-7 | 2026-09-04 15:23:23 | 48.44049 | 3.75094 | 260° | 9km/h | 26690m | 6.8m/s | 0°C | 0% | 0hPa | 2.4V | 00:00:00 | 00:00:00 | 00:00:00 | |
| DB0UT-7 | 2026-09-04 15:22:53 | 48.44064 | 3.75146 | 319° | 9km/h | 26494m | 6.9m/s | 0°C | 0% | 0hPa | 2.4V | 00:00:00 | 00:00:00 | 00:00:00 | |
| DB0UT-7 | 2026-09-04 15:22:23 | 48.44025 | 3.75089 | 274° | 9km/h | 26304m | 7.8m/s | 0°C | 0% | 0hPa | 2.4V | 00:00:00 | 00:00:00 | 00:00:00 | |
| DB0UT-7 | 2026-09-04 15:21:53 | 48.44023 | 3.75025 | 59° | 13km/h | 26118m | 5.9m/s | 0°C | 0% | 0hPa | 2.4V | 00:00:00 | 00:00:00 | 00:00:00 | |
| DB0UT-7 | 2026-09-04 15:21:23 | 48.44066 | 3.74989 | 215° | 7km/h | 25933m | 7.2m/s | 0°C | 0% | 0hPa | 2.4V | 00:00:00 | 00:00:00 | 00:00:00 | |
| BIOWL1-15 | 2026-09-04 15:21:06 | 48.44095 | 3.74983 | 116° | 16km/h | 25817m | 4.5m/s | -47.7°C | 0% | 22hPa | 2.4V | 00:00:00 | 00:00:00 | 00:00:00 | |
| BIOWL1-15 | 2026-09-04 15:20:50 | 48.44110 | 3.74972 | 221° | 4km/h | 25733m | 7.5m/s | -47.8°C | 0% | 22.3hPa | 2.4V | 00:00:00 | 00:00:00 | 00:00:00 | |
| BIOWL1-15 | 2026-09-04 15:20:33 | 48.44107 | 3.75030 | 310° | 7km/h | 25608m | 7.2m/s | -48.1°C | 0% | 22.8hPa | 2.4V | 00:00:00 | 00:00:00 | 00:00:00 | |
| DB0UT-7 | 2026-09-04 15:20:23 | 48.44103 | 3.75057 | 270° | 20km/h | 25574m | 4.5m/s | 0°C | 0% | 0hPa | 2.4V | 00:00:00 | 00:00:00 | 00:00:00 | |
| DB0UT-7 | 2026-09-04 15:19:53 | 48.44201 | 3.75194 | 193° | 18km/h | 25390m | 7.5m/s | 0°C | 0% | 0hPa | 2.4V | 00:00:00 | 00:00:00 | 00:00:00 | |
| DB0UT-7 | 2026-09-04 15:19:23 | 48.44319 | 3.75244 | 207° | 9km/h | 25210m | 5.3m/s | 0°C | 0% | 0hPa | 2.4V | 00:00:00 | 00:00:00 | 00:00:00 | |
| DB0UT-7 | 2026-09-04 15:18:53 | 48.44368 | 3.75197 | 148° | 15km/h | 25032m | 5.0m/s | 0°C | 0% | 0hPa | 2.4V | 00:00:00 | 00:00:00 | 00:00:00 | |
| DB0UT-7 | 2026-09-04 15:18:23 | 48.44454 | 3.75202 | 187° | 20km/h | 24854m | 5.5m/s | 0°C | 0% | 0hPa | 2.4V | 00:00:00 | 00:00:00 | 00:00:00 | |
| DB0UT-7 | 2026-09-04 15:17:53 | 48.44600 | 3.75188 | 138° | 16km/h | 24681m | 6.8m/s | 0°C | 0% | 0hPa | 2.4V | 00:00:00 | 00:00:00 | 00:00:00 | |
| DB0UT-7 | 2026-09-04 15:17:23 | 48.44683 | 3.75074 | 152° | 16km/h | 24503m | 7.7m/s | 0°C | 0% | 0hPa | 2.4V | 00:00:00 | 00:00:00 | 00:00:00 | |
| BIOWL1-15 | 2026-09-04 15:17:01 | 48.44743 | 3.75124 | 185° | 13km/h | 24375m | 7.1m/s | -50.9°C | 0% | 27.9hPa | 2.4V | 00:00:00 | 00:00:00 | 00:00:00 | |
| DB0UT-7 | 2026-09-04 15:16:53 | 48.44780 | 3.75135 | 184° | 20km/h | 24330m | 6.7m/s | 0°C | 0% | 0hPa | 2.4V | 00:00:00 | 00:00:00 | 00:00:00 | |
| DB0UT-7 | 2026-09-04 15:16:23 | 48.44916 | 3.75082 | 157° | 13km/h | 24155m | 6.8m/s | 0°C | 0% | 0hPa | 2.4V | 00:00:00 | 00:00:00 | 00:00:00 | |
| DB0UT-7 | 2026-09-04 15:15:53 | 48.44931 | 3.74977 | 115° | 13km/h | 23986m | 7.4m/s | 0°C | 0% | 0hPa | 2.4V | 00:00:00 | 00:00:00 | 00:00:00 | |
| DB0UT-7 | 2026-09-04 15:15:23 | 48.44883 | 3.75026 | 326° | 16km/h | 23822m | 7.8m/s | 0°C | 0% | 0hPa | 2.4V | 00:00:00 | 00:00:00 | 00:00:00 | |
| BIOWL1-15 | 2026-09-04 15:14:50 | 48.44892 | 3.75197 | 235° | 18km/h | 23636m | 3.8m/s | -51.2°C | 0% | 31.5hPa | 2.4V | 00:00:00 | 00:00:00 | 00:00:00 | |
| BIOWL1-15 | 2026-09-04 15:14:35 | 48.44967 | 3.75231 | 169° | 18km/h | 23554m | 6m/s | -51.8°C | 0% | 31.9hPa | 2.4V | 00:00:00 | 00:00:00 | 00:00:00 | |
| DB0UT-7 | 2026-09-04 15:13:53 | 48.45061 | 3.75066 | 94° | 13km/h | 23317m | 4.4m/s | 0°C | 0% | 0hPa | 2.4V | 00:00:00 | 00:00:00 | 00:00:00 | |
| DB0UT-7 | 2026-09-04 15:13:23 | 48.45045 | 3.74935 | 75° | 15km/h | 23151m | 7.3m/s | 0°C | 0% | 0hPa | 2.4V | 00:00:00 | 00:00:00 | 00:00:00 | |
| BIOWL1-15 | 2026-09-04 15:12:41 | 48.45076 | 3.74729 | 87° | 15km/h | 22913m | 6.8m/s | -53.2°C | 0% | 35.5hPa | 2.4V | 00:00:00 | 00:00:00 | 00:00:00 | |
| BIOWL1-15 | 2026-09-04 15:12:28 | 48.45081 | 3.74687 | 47° | 15km/h | 22837m | 3.1m/s | -53.6°C | 0% | 35.9hPa | 2.4V | 00:00:00 | 00:00:00 | 00:00:00 | |
| BIOWL1-15 | 2026-09-04 15:12:10 | 48.45028 | 3.74611 | 41° | 16km/h | 22744m | 6m/s | -53.5°C | 0% | 36.5hPa | 2.4V | 00:00:00 | 00:00:00 | 00:00:00 | |
| BIOWL1-15 | 2026-09-04 15:11:59 | 48.44994 | 3.74582 | 20° | 18km/h | 22686m | 6.6m/s | -53.4°C | 0% | 36.8hPa | 2.4V | 00:00:00 | 00:00:00 | 00:00:00 | |
| BIOWL1-15 | 2026-09-04 15:11:48 | 48.44958 | 3.74575 | 347° | 5km/h | 22625m | 5.6m/s | -53.1°C | 0% | 37.2hPa | 2.4V | 00:00:00 | 00:00:00 | 00:00:00 | |
| BIOWL1-15 | 2026-09-04 15:11:36 | 48.44935 | 3.74577 | 60° | 5km/h | 22541m | 3.9m/s | -52.6°C | 0% | 37.7hPa | 2.4V | 00:00:00 | 00:00:00 | 00:00:00 | |
| DB0UT-7 | 2026-09-04 15:11:23 | 48.44940 | 3.74579 | 208° | 13km/h | 22487m | 3.9m/s | 0°C | 0% | 0hPa | 2.4V | 00:00:00 | 00:00:00 | 00:00:00 | |
| DB0UT-7 | 2026-09-04 15:10:53 | 48.45036 | 3.74534 | 149° | 20km/h | 22330m | 6.3m/s | 0°C | 0% | 0hPa | 2.4V | 00:00:00 | 00:00:00 | 00:00:00 | |
| DB0UT-7 | 2026-09-04 15:10:23 | 48.45118 | 3.74348 | 105° | 22km/h | 22168m | 3.7m/s | 0°C | 0% | 0hPa | 2.4V | 00:00:00 | 00:00:00 | 00:00:00 | |
| BIOWL1-15 | 2026-09-04 15:09:40 | 48.45074 | 3.74025 | 58° | 11km/h | 21920m | 6.5m/s | -52.6°C | 0% | 41.7hPa | 2.4V | 00:00:00 | 00:00:00 | 00:00:00 | |
| BIOWL1-15 | 2026-09-04 15:09:25 | 48.45067 | 3.73946 | 108° | 16km/h | 21850m | 3.7m/s | -52.6°C | 0% | 42.2hPa | 2.4V | 00:00:00 | 00:00:00 | 00:00:00 | |
| BIOWL1-15 | 2026-09-04 15:09:17 | 48.45071 | 3.73862 | 59° | 18km/h | 21785m | 4.7m/s | -53.1°C | 0% | 42.7hPa | 2.4V | 00:00:00 | 00:00:00 | 00:00:00 | |
| DB0UT-7 | 2026-09-04 15:08:52 | 48.45030 | 3.73719 | 59° | 18km/h | 21664m | 6.8m/s | 0°C | 0% | 0hPa | 2.4V | 00:00:00 | 00:00:00 | 00:00:00 | |
| DB0UT-7 | 2026-09-04 15:08:22 | 48.45005 | 3.73530 | 96° | 26km/h | 21496m | 6.3m/s | 0°C | 0% | 0hPa | 2.4V | 00:00:00 | 00:00:00 | 00:00:00 | |
| DB0UT-7 | 2026-09-04 15:07:52 | 48.45081 | 3.73273 | 105° | 22km/h | 21329m | 6.2m/s | 0°C | 0% | 0hPa | 2.4V | 00:00:00 | 00:00:00 | 00:00:00 | |
| BIOWL1-15 | 2026-09-04 15:07:18 | 48.45061 | 3.73008 | 1° | 13km/h | 21140m | 7.1m/s | -53°C | 0% | 47.4hPa | 2.4V | 00:00:00 | 00:00:00 | 00:00:00 | |
| BIOWL1-15 | 2026-09-04 15:06:46 | 48.45009 | 3.72940 | 22° | 7km/h | 20968m | 6m/s | -52.5°C | 0% | 48.7hPa | 2.4V | 00:00:00 | 00:00:00 | 00:00:00 | |
| BIOWL1-15 | 2026-09-04 15:06:20 | 48.45000 | 3.72885 | 43° | 9km/h | 20833m | 5m/s | -53.3°C | 0% | 49.8hPa | 2.5V | 00:00:00 | 00:00:00 | 00:00:00 | |
| BIOWL1-15 | 2026-09-04 15:06:12 | 48.44997 | 3.72846 | 138° | 15km/h | 20782m | 4.4m/s | -53.6°C | 0% | 50.2hPa | 2.5V | 00:00:00 | 00:00:00 | 00:00:00 | |
| BIOWL1-15 | 2026-09-04 15:05:59 | 48.45007 | 3.72808 | 138° | 13km/h | 20728m | 4.5m/s | -54.1°C | 0% | 50.6hPa | 2.5V | 00:00:00 | 00:00:00 | 00:00:00 | |
| BIOWL1-15 | 2026-09-04 15:05:48 | 48.45014 | 3.72756 | 121° | 15km/h | 20670m | 5.6m/s | -54.2°C | 0% | 51.1hPa | 2.5V | 00:00:00 | 00:00:00 | 00:00:00 | |
| DB0UT-7 | 2026-09-04 15:05:22 | 48.45066 | 3.72531 | 107° | 37km/h | 20537m | 5.6m/s | 0°C | 0% | 0hPa | 2.5V | 00:00:00 | 00:00:00 | 00:00:00 | |
| BIOWL1-15 | 2026-09-04 15:04:55 | 48.45104 | 3.72164 | 89° | 35km/h | 20404m | 5.5m/s | -54.2°C | 0% | 53.4hPa | 2.5V | 00:00:00 | 00:00:00 | 00:00:00 | |
| DB0UT-7 | 2026-09-04 15:04:52 | 48.45103 | 3.72127 | 90° | 26km/h | 20389m | 5.6m/s | 0°C | 0% | 0hPa | 2.5V | 00:00:00 | 00:00:00 | 00:00:00 | |
| DB0UT-7 | 2026-09-04 15:04:22 | 48.45096 | 3.71852 | 91° | 31km/h | 20234m | 4.7m/s | 0°C | 0% | 0hPa | 2.5V | 00:00:00 | 00:00:00 | 00:00:00 | |
| DB0UT-7 | 2026-09-04 15:03:51 | 48.45013 | 3.71531 | 76° | 24km/h | 20078m | 4.3m/s | 0°C | 0% | 0hPa | 2.5V | 00:00:00 | 00:00:00 | 00:00:00 | |
| DB0UT-7 | 2026-09-04 15:03:20 | 48.44915 | 3.71289 | 75° | 22km/h | 19916m | 6.7m/s | 0°C | 0% | 0hPa | 2.5V | 00:00:00 | 00:00:00 | 00:00:00 | |
| DB0UT-7 | 2026-09-04 15:02:50 | 48.44939 | 3.71056 | 107° | 35km/h | 19759m | 4.7m/s | 0°C | 0% | 0hPa | 2.5V | 00:00:00 | 00:00:00 | 00:00:00 | |
| DB0UT-7 | 2026-09-04 15:02:20 | 48.45022 | 3.70692 | 100° | 35km/h | 19603m | 5.0m/s | 0°C | 0% | 0hPa | 2.5V | 00:00:00 | 00:00:00 | 00:00:00 | |
| DB0UT-7 | 2026-09-04 15:01:50 | 48.45010 | 3.70290 | 78° | 35km/h | 19440m | 6.5m/s | 0°C | 0% | 0hPa | 2.5V | 00:00:00 | 00:00:00 | 00:00:00 | |
| BIOWL1-15 | 2026-09-04 15:01:20 | 48.44950 | 3.69877 | 89° | 42km/h | 19275m | 5.8m/s | -55.4°C | 0% | 64.2hPa | 2.5V | 00:00:00 | 00:00:00 | 00:00:00 | |
| BIOWL1-15 | 2026-09-04 15:01:10 | 48.44955 | 3.69700 | 85° | 46km/h | 19216m | 5.1m/s | -55.6°C | 0% | 64.7hPa | 2.5V | 00:00:00 | 00:00:00 | 00:00:00 | |
| BIOWL1-15 | 2026-09-04 15:01:00 | 48.44945 | 3.69522 | 87° | 49km/h | 19164m | 4.4m/s | -55.5°C | 0% | 65.3hPa | 2.5V | 00:00:00 | 00:00:00 | 00:00:00 | |
| BIOWL1-15 | 2026-09-04 15:00:45 | 48.44911 | 3.69321 | 63° | 46km/h | 19097m | 6.6m/s | -55.9°C | 0% | 66hPa | 2.5V | 00:00:00 | 00:00:00 | 00:00:00 | |
| BIOWL1-15 | 2026-09-04 15:00:34 | 48.44867 | 3.69167 | 72° | 38km/h | 19043m | 5.1m/s | -55.8°C | 0% | 66.6hPa | 2.5V | 00:00:00 | 00:00:00 | 00:00:00 | |
| BIOWL1-15 | 2026-09-04 15:00:27 | 48.44837 | 3.69034 | 82° | 40km/h | 18985m | 4.8m/s | -57°C | 0% | 67.2hPa | 2.5V | 00:00:00 | 00:00:00 | 00:00:00 | |
| DB0UT-7 | 2026-09-04 15:00:20 | 48.44833 | 3.68993 | 84° | 33km/h | 18969m | 4.3m/s | 0°C | 0% | 0hPa | 2.3V | 00:00:00 | 00:00:00 | 00:00:00 | |
| DB0UT-7 | 2026-09-04 14:59:50 | 48.44863 | 3.68634 | 99° | 37km/h | 18813m | 4.2m/s | 0°C | 0% | 0hPa | 2.3V | 00:00:00 | 00:00:00 | 00:00:00 | |
| DB0UT-7 | 2026-09-04 14:59:20 | 48.44923 | 3.68238 | 112° | 42km/h | 18662m | 4.8m/s | 0°C | 0% | 0hPa | 2.3V | 00:00:00 | 00:00:00 | 00:00:00 | |
| DB0UT-7 | 2026-09-04 14:58:50 | 48.45006 | 3.67779 | 93° | 46km/h | 18508m | 6.3m/s | 0°C | 0% | 0hPa | 2.3V | 00:00:00 | 00:00:00 | 00:00:00 | |
| BIOWL1-15 | 2026-09-04 14:58:19 | 48.45058 | 3.67210 | 98° | 42km/h | 18339m | 5.6m/s | -56.4°C | 0% | 74.7hPa | 2.3V | 00:00:00 | 00:00:00 | 00:00:00 | |
| DB0UT-7 | 2026-09-04 14:58:19 | 48.45055 | 3.67242 | 97° | 40km/h | 18349m | 5.7m/s | 0°C | 0% | 0hPa | 2.3V | 00:00:00 | 00:00:00 | 00:00:00 | |
| BIOWL1-15 | 2026-09-04 14:57:56 | 48.45061 | 3.66855 | 92° | 35km/h | 18221m | 5m/s | -56.1°C | 0% | 76.1hPa | 2.3V | 00:00:00 | 00:00:00 | 00:00:00 | |
| BIOWL1-15 | 2026-09-04 14:57:43 | 48.45065 | 3.66702 | 97° | 35km/h | 18166m | 6.3m/s | -56.5°C | 0% | 76.8hPa | 2.3V | 00:00:00 | 00:00:00 | 00:00:00 | |
| BIOWL1-15 | 2026-09-04 14:57:32 | 48.45069 | 3.66569 | 110° | 27km/h | 18112m | 5.8m/s | -56.3°C | 0% | 77.5hPa | 2.3V | 00:00:00 | 00:00:00 | 00:00:00 | |
| DB0UT-7 | 2026-09-04 14:57:19 | 48.45080 | 3.66447 | 119° | 26km/h | 18051m | 4.9m/s | 0°C | 0% | 0hPa | 2.3V | 00:00:00 | 00:00:00 | 00:00:00 | |
| DB0UT-7 | 2026-09-04 14:56:49 | 48.45147 | 3.66166 | 114° | 40km/h | 17898m | 4.6m/s | 0°C | 0% | 0hPa | 2.3V | 00:00:00 | 00:00:00 | 00:00:00 | |
| DB0UT-7 | 2026-09-04 14:56:19 | 48.45305 | 3.65780 | 113° | 51km/h | 17752m | 5.0m/s | 0°C | 0% | 0hPa | 2.3V | 00:00:00 | 00:00:00 | 00:00:00 | |
| BIOWL1-15 | 2026-09-04 14:55:33 | 48.45328 | 3.64848 | 78° | 51km/h | 17521m | 5.7m/s | -57.6°C | 0% | 85.2hPa | 2.3V | 00:00:00 | 00:00:00 | 00:00:00 | |
| BIOWL1-15 | 2026-09-04 14:55:23 | 48.45297 | 3.64644 | 89° | 55km/h | 17474m | 4.2m/s | -57.6°C | 0% | 85.9hPa | 2.3V | 00:00:00 | 00:00:00 | 00:00:00 | |
| BIOWL1-15 | 2026-09-04 14:55:13 | 48.45281 | 3.64450 | 85° | 46km/h | 17426m | 5.7m/s | -57.6°C | 0% | 86.6hPa | 2.3V | 00:00:00 | 00:00:00 | 00:00:00 | |
| BIOWL1-15 | 2026-09-04 14:54:59 | 48.45278 | 3.64208 | 102° | 42km/h | 17355m | 4m/s | -57.7°C | 0% | 87.6hPa | 2.3V | 00:00:00 | 00:00:00 | 00:00:00 | |
| BIOWL1-15 | 2026-09-04 14:54:50 | 48.45293 | 3.64024 | 103° | 40km/h | 17302m | 4.3m/s | -58°C | 0% | 88.3hPa | 2.3V | 00:00:00 | 00:00:00 | 00:00:00 | |
| BIOWL1-15 | 2026-09-04 14:54:38 | 48.45309 | 3.63869 | 95° | 53km/h | 17252m | 3.4m/s | -58.2°C | 0% | 89hPa | 2.3V | 00:00:00 | 00:00:00 | 00:00:00 | |
| BIOWL1-15 | 2026-09-04 14:54:25 | 48.45334 | 3.63637 | 102° | 53km/h | 17186m | 5.5m/s | -58.8°C | 0% | 90hPa | 2.3V | 00:00:00 | 00:00:00 | 00:00:00 | |
| BIOWL1-15 | 2026-09-04 14:54:15 | 48.45370 | 3.63458 | 112° | 55km/h | 17135m | 3.7m/s | -58.8°C | 0% | 90.7hPa | 2.3V | 00:00:00 | 00:00:00 | 00:00:00 | |
| BIOWL1-15 | 2026-09-04 14:54:03 | 48.45410 | 3.63227 | 96° | 47km/h | 17070m | 5.8m/s | -59.2°C | 0% | 91.7hPa | 2.3V | 00:00:00 | 00:00:00 | 00:00:00 | |
| DB0UT-7 | 2026-09-04 14:53:49 | 48.45434 | 3.62976 | 96° | 57km/h | 17005m | 4.2m/s | 0°C | 0% | 0hPa | 2.3V | 00:00:00 | 00:00:00 | 00:00:00 | |
| DB0UT-7 | 2026-09-04 14:53:19 | 48.45445 | 3.62329 | 86° | 55km/h | 16857m | 5.8m/s | 0°C | 0% | 0hPa | 2.3V | 00:00:00 | 00:00:00 | 00:00:00 | |
| DB0UT-7 | 2026-09-04 14:52:49 | 48.45415 | 3.61712 | 82° | 57km/h | 16710m | 4.5m/s | 0°C | 0% | 0hPa | 2.3V | 00:00:00 | 00:00:00 | 00:00:00 | |
| DB0UT-7 | 2026-09-04 14:52:19 | 48.45388 | 3.61076 | 80° | 57km/h | 16562m | 5.9m/s | 0°C | 0% | 0hPa | 2.3V | 00:00:00 | 00:00:00 | 00:00:00 | |
| DB0UT-7 | 2026-09-04 14:51:49 | 48.45335 | 3.60449 | 88° | 60km/h | 16413m | 5.2m/s | 0°C | 0% | 0hPa | 2.3V | 00:00:00 | 00:00:00 | 00:00:00 | |
| DB0UT-7 | 2026-09-04 14:51:18 | 48.45307 | 3.59724 | 85° | 68km/h | 16264m | 3.1m/s | 0°C | 0% | 0hPa | 2.3V | 00:00:00 | 00:00:00 | 00:00:00 | |
| BIOWL1-15 | 2026-09-04 14:50:38 | 48.45340 | 3.58659 | 101° | 73km/h | 16064m | 3.3m/s | -59.4°C | 0% | 108.1hPa | 2.3V | 00:00:00 | 00:00:00 | 00:00:00 | |
| BIOWL1-15 | 2026-09-04 14:50:23 | 48.45367 | 3.58212 | 91° | 78km/h | 15984m | 5.5m/s | -59.3°C | 0% | 109.5hPa | 2.5V | 00:00:00 | 00:00:00 | 00:00:00 | |
| BIOWL1-15 | 2026-09-04 14:50:13 | 48.45375 | 3.57924 | 93° | 75km/h | 15934m | 3.5m/s | -59.3°C | 0% | 110.4hPa | 2.5V | 00:00:00 | 00:00:00 | 00:00:00 | |
| BIOWL1-15 | 2026-09-04 14:50:01 | 48.45390 | 3.57513 | 91° | 78km/h | 15866m | 6.3m/s | -59.1°C | 0% | 111.7hPa | 2.5V | 00:00:00 | 00:00:00 | 00:00:00 | |
| BIOWL1-15 | 2026-09-04 14:49:48 | 48.45373 | 3.57192 | 89° | 77km/h | 15814m | 5.7m/s | -58.9°C | 0% | 112.7hPa | 2.5V | 00:00:00 | 00:00:00 | 00:00:00 | |
| BIOWL1-15 | 2026-09-04 14:49:36 | 48.45359 | 3.56906 | 89° | 75km/h | 15763m | 4.5m/s | -59.3°C | 0% | 113.5hPa | 2.5V | 00:00:00 | 00:00:00 | 00:00:00 | |
| BIOWL1-15 | 2026-09-04 14:49:25 | 48.45326 | 3.56604 | 82° | 75km/h | 15710m | 3.7m/s | -59.4°C | 0% | 114.5hPa | 2.5V | 00:00:00 | 00:00:00 | 00:00:00 | |
| BIOWL1-15 | 2026-09-04 14:49:14 | 48.45281 | 3.56287 | 76° | 71km/h | 15658m | 5m/s | -58.9°C | 0% | 115.5hPa | 2.5V | 00:00:00 | 00:00:00 | 00:00:00 | |
| BIOWL1-15 | 2026-09-04 14:49:03 | 48.45230 | 3.55946 | 77° | 77km/h | 15603m | 5.5m/s | -59°C | 0% | 116.5hPa | 2.5V | 00:00:00 | 00:00:00 | 00:00:00 | |
| BIOWL1-15 | 2026-09-04 14:48:51 | 48.45197 | 3.55641 | 77° | 73km/h | 15551m | 3.5m/s | -59.8°C | 0% | 117.5hPa | 2.5V | 00:00:00 | 00:00:00 | 00:00:00 | |
| BIOWL1-15 | 2026-09-04 14:48:39 | 48.45169 | 3.55292 | 78° | 80km/h | 15494m | 4.3m/s | -60°C | 0% | 118.6hPa | 2.5V | 00:00:00 | 00:00:00 | 00:00:00 | |
| DB0UT-7 | 2026-09-04 14:48:17 | 48.45105 | 3.54651 | 81° | 77km/h | 15391m | 3.4m/s | 0°C | 0% | 0hPa | 0V | 00:00:00 | 00:00:00 | 00:00:00 | |
| DB0UT-7 | 2026-09-04 14:47:47 | 48.45000 | 3.53817 | 73° | 78km/h | 15251m | 5.6m/s | 0°C | 0% | 0hPa | 0V | 00:00:00 | 00:00:00 | 00:00:00 | |
| DB0UT-7 | 2026-09-04 14:47:17 | 48.44879 | 3.52927 | 81° | 78km/h | 15106m | 5.9m/s | 0°C | 0% | 0hPa | 0V | 00:00:00 | 00:00:00 | 00:00:00 | |
| DB0UT-7 | 2026-09-04 14:46:47 | 48.44819 | 3.52029 | 89° | 80km/h | 14959m | 4.1m/s | 0°C | 0% | 0hPa | 0V | 00:00:00 | 00:00:00 | 00:00:00 | |
| DB0UT-7 | 2026-09-04 14:46:17 | 48.44843 | 3.51121 | 91° | 84km/h | 14813m | 6.6m/s | 0°C | 0% | 0hPa | 0V | 00:00:00 | 00:00:00 | 00:00:00 | |
| DB0UT-7 | 2026-09-04 14:45:47 | 48.44846 | 3.50172 | 93° | 86km/h | 14668m | 4.3m/s | 0°C | 0% | 0hPa | 0V | 00:00:00 | 00:00:00 | 00:00:00 | |
| DM0DOS-11 | 2026-09-04 14:45:23 | 48.44825 | 3.49227 | 83° | 86km/h | 14535m | 4.4m/s | 0°C | 0% | 0hPa | 0V | 00:00:00 | 00:00:00 | 00:00:00 | |
| DB0UT-7 | 2026-09-04 14:45:17 | 48.44823 | 3.49195 | 84° | 86km/h | 14531m | 4.0m/s | 0°C | 0% | 0hPa | 0V | 00:00:00 | 00:00:00 | 00:00:00 | |
| DM0DOS-11 | 2026-09-04 14:45:09 | 48.44794 | 3.48716 | 84° | 82km/h | 14463m | 3.6m/s | 0°C | 0% | 0hPa | 0V | 00:00:00 | 00:00:00 | 00:00:00 | |
| DM0DOS-11 | 2026-09-04 14:44:56 | 48.44782 | 3.48353 | 90° | 88km/h | 14415m | 4.8m/s | 0°C | 0% | 0hPa | 0V | 00:00:00 | 00:00:00 | 00:00:00 | |
| DB0UT-7 | 2026-09-04 14:44:47 | 48.44779 | 3.48217 | 85° | 95km/h | 14397m | 5.5m/s | 0°C | 0% | 0hPa | 0V | 00:00:00 | 00:00:00 | 00:00:00 | |
| DB0UT-7 | 2026-09-04 14:44:17 | 48.44763 | 3.47143 | 84° | 97km/h | 14257m | 2.4m/s | 0°C | 0% | 0hPa | 0V | 00:00:00 | 00:00:00 | 00:00:00 | |
| DB0UT-7 | 2026-09-04 14:43:47 | 48.44715 | 3.46040 | 86° | 99km/h | 14101m | 10.5m/s | 0°C | 0% | 0hPa | 0V | 00:00:00 | 00:00:00 | 00:00:00 | |
| DB0UT-7 | 2026-09-04 14:43:17 | 48.44515 | 3.44955 | 71° | 93km/h | 13931m | 5.3m/s | 0°C | 0% | 0hPa | 0V | 00:00:00 | 00:00:00 | 00:00:00 | |
| DB0UT-7 | 2026-09-04 14:42:47 | 48.44240 | 3.43987 | 71° | 89km/h | 13776m | 3.1m/s | 0°C | 0% | 0hPa | 0V | 00:00:00 | 00:00:00 | 00:00:00 | |
| DB0UT-7 | 2026-09-04 14:42:17 | 48.44036 | 3.43014 | 79° | 91km/h | 13630m | 2.5m/s | 0°C | 0% | 0hPa | 0V | 00:00:00 | 00:00:00 | 00:00:00 | |
| DB0UT-7 | 2026-09-04 14:41:47 | 48.43862 | 3.42006 | 73° | 99km/h | 13489m | 7.2m/s | 0°C | 0% | 0hPa | 0V | 00:00:00 | 00:00:00 | 00:00:00 | |
| DB0UT-7 | 2026-09-04 14:41:17 | 48.43633 | 3.40949 | 68° | 99km/h | 13334m | 4.9m/s | 0°C | 0% | 0hPa | 0V | 00:00:00 | 00:00:00 | 00:00:00 | |
| DB0UT-7 | 2026-09-04 14:40:47 | 48.43305 | 3.39937 | 65° | 95km/h | 13180m | 5.0m/s | 0°C | 0% | 0hPa | 0V | 00:00:00 | 00:00:00 | 00:00:00 | |
| DB0UT-7 | 2026-09-04 14:40:17 | 48.42983 | 3.38987 | 60° | 88km/h | 13034m | 4.8m/s | 0°C | 0% | 0hPa | 0V | 00:00:00 | 00:00:00 | 00:00:00 | |
| DB0UT-7 | 2026-09-04 14:39:47 | 48.42672 | 3.38121 | 65° | 84km/h | 12884m | 5.3m/s | 0°C | 0% | 0hPa | 0V | 00:00:00 | 00:00:00 | 00:00:00 | |
| DB0UT-7 | 2026-09-04 14:39:17 | 48.42421 | 3.37242 | 66° | 82km/h | 12737m | 5.5m/s | 0°C | 0% | 0hPa | 0V | 00:00:00 | 00:00:00 | 00:00:00 | |
| DB0UT-7 | 2026-09-04 14:38:47 | 48.42159 | 3.36390 | 65° | 77km/h | 12593m | 2.8m/s | 0°C | 0% | 0hPa | 0V | 00:00:00 | 00:00:00 | 00:00:00 | |
| DB0UT-7 | 2026-09-04 14:38:17 | 48.41905 | 3.35597 | 65° | 78km/h | 12446m | 5.2m/s | 0°C | 0% | 0hPa | 0V | 00:00:00 | 00:00:00 | 00:00:00 | |
| DB0UT-7 | 2026-09-04 14:37:47 | 48.41667 | 3.34780 | 69° | 80km/h | 12308m | 5.5m/s | 0°C | 0% | 0hPa | 0V | 00:00:00 | 00:00:00 | 00:00:00 | |
| DB0UT-7 | 2026-09-04 14:37:17 | 48.41430 | 3.33945 | 67° | 88km/h | 12161m | 5.5m/s | 0°C | 0% | 0hPa | 0V | 00:00:00 | 00:00:00 | 00:00:00 | |
| DB0UT-7 | 2026-09-04 14:36:47 | 48.41181 | 3.33023 | 68° | 89km/h | 12005m | 4.0m/s | 0°C | 0% | 0hPa | 0V | 00:00:00 | 00:00:00 | 00:00:00 | |
| DB0UT-7 | 2026-09-04 14:36:17 | 48.40954 | 3.32067 | 65° | 88km/h | 11859m | 3.6m/s | 0°C | 0% | 0hPa | 0V | 00:00:00 | 00:00:00 | 00:00:00 | |
| DB0UT-7 | 2026-09-04 14:35:47 | 48.40777 | 3.31119 | 72° | 84km/h | 11715m | 3.7m/s | 0°C | 0% | 0hPa | 0V | 00:00:00 | 00:00:00 | 00:00:00 | |
| DB0UT-7 | 2026-09-04 14:35:17 | 48.40612 | 3.30205 | 72° | 80km/h | 11567m | 3.6m/s | 0°C | 0% | 0hPa | 0V | 00:00:00 | 00:00:00 | 00:00:00 | |
| DB0UT-7 | 2026-09-04 14:34:47 | 48.40442 | 3.29331 | 72° | 78km/h | 11421m | 5.1m/s | 0°C | 0% | 0hPa | 0V | 00:00:00 | 00:00:00 | 00:00:00 | |
| DB0UT-7 | 2026-09-04 14:34:17 | 48.40248 | 3.28493 | 73° | 77km/h | 11275m | 5.6m/s | 0°C | 0% | 0hPa | 0V | 00:00:00 | 00:00:00 | 00:00:00 | |
| DB0UT-7 | 2026-09-04 14:33:47 | 48.40048 | 3.27686 | 70° | 68km/h | 11113m | 4.9m/s | 0°C | 0% | 0hPa | 0V | 00:00:00 | 00:00:00 | 00:00:00 | |
| DB0UT-7 | 2026-09-04 14:33:17 | 48.39833 | 3.26980 | 67° | 75km/h | 10966m | 2.7m/s | 0°C | 0% | 0hPa | 0V | 00:00:00 | 00:00:00 | 00:00:00 | |
| DB0UT-7 | 2026-09-04 14:32:47 | 48.39626 | 3.26167 | 78° | 86km/h | 10802m | 5.8m/s | 0°C | 0% | 0hPa | 0V | 00:00:00 | 00:00:00 | 00:00:00 | |
| DB0UT-7 | 2026-09-04 14:32:17 | 48.39445 | 3.25237 | 76° | 91km/h | 10654m | 4.9m/s | 0°C | 0% | 0hPa | 0V | 00:00:00 | 00:00:00 | 00:00:00 | |
| DB0UT-7 | 2026-09-04 14:31:47 | 48.39239 | 3.24250 | 77° | 97km/h | 10511m | 1.7m/s | 0°C | 0% | 0hPa | 0V | 00:00:00 | 00:00:00 | 00:00:00 | |
| DB0UT-7 | 2026-09-04 14:31:17 | 48.39015 | 3.23197 | 67° | 99km/h | 10343m | 6.8m/s | 0°C | 0% | 0hPa | 0V | 00:00:00 | 00:00:00 | 00:00:00 | |
| DB0UT-7 | 2026-09-04 14:30:17 | 48.38547 | 3.21071 | 78° | 102km/h | 10011m | 3.6m/s | 0°C | 0% | 0hPa | 0V | 00:00:00 | 00:00:00 | 00:00:00 | |
| DB0UT-7 | 2026-09-04 14:29:47 | 48.38354 | 3.19951 | 80° | 100km/h | 9861m | 4.8m/s | 0°C | 0% | 0hPa | 0V | 00:00:00 | 00:00:00 | 00:00:00 | |
| DB0UT-7 | 2026-09-04 14:29:17 | 48.38145 | 3.18860 | 71° | 91km/h | 9713m | 5.4m/s | 0°C | 0% | 0hPa | 0V | 00:00:00 | 00:00:00 | 00:00:00 | |
| DB0UT-7 | 2026-09-04 14:28:46 | 48.38006 | 3.17816 | 79° | 89km/h | 9549m | 3.3m/s | 0°C | 0% | 0hPa | 0V | 00:00:00 | 00:00:00 | 00:00:00 | |
| DB0UT-7 | 2026-09-04 14:28:16 | 48.37924 | 3.16802 | 80° | 93km/h | 9385m | 6.5m/s | 0°C | 0% | 0hPa | 0V | 00:00:00 | 00:00:00 | 00:00:00 | |
| DB0UT-7 | 2026-09-04 14:27:46 | 48.37867 | 3.15759 | 86° | 89km/h | 9216m | 4.1m/s | 0°C | 0% | 0hPa | 0V | 00:00:00 | 00:00:00 | 00:00:00 | |
| DB0UT-7 | 2026-09-04 14:27:16 | 48.37800 | 3.14743 | 89° | 88km/h | 9065m | 6.6m/s | 0°C | 0% | 0hPa | 0V | 00:00:00 | 00:00:00 | 00:00:00 | |
| DB0UT-7 | 2026-09-04 14:26:46 | 48.37734 | 3.13754 | 86° | 88km/h | 8910m | 4.7m/s | 0°C | 0% | 0hPa | 0V | 00:00:00 | 00:00:00 | 00:00:00 | |
| DB0UT-7 | 2026-09-04 14:26:16 | 48.37667 | 3.12772 | 87° | 88km/h | 8748m | 5.6m/s | 0°C | 0% | 0hPa | 0V | 00:00:00 | 00:00:00 | 00:00:00 | |
| DB0UT-7 | 2026-09-04 14:25:46 | 48.37565 | 3.11777 | 89° | 93km/h | 8615m | 4.6m/s | 0°C | 0% | 0hPa | 0V | 00:00:00 | 00:00:00 | 00:00:00 | |
| DB0UT-7 | 2026-09-04 14:25:16 | 48.37475 | 3.10725 | 81° | 89km/h | 8459m | 5.3m/s | 0°C | 0% | 0hPa | 0V | 00:00:00 | 00:00:00 | 00:00:00 | |
| DB0UT-7 | 2026-09-04 14:24:46 | 48.37345 | 3.09721 | 77° | 97km/h | 8292m | 4.9m/s | 0°C | 0% | 0hPa | 0V | 00:00:00 | 00:00:00 | 00:00:00 | |
| DB0UT-7 | 2026-09-04 14:24:16 | 48.37200 | 3.08649 | 83° | 91km/h | 8131m | 6.3m/s | 0°C | 0% | 0hPa | 0V | 00:00:00 | 00:00:00 | 00:00:00 | |
| DB0UT-7 | 2026-09-04 14:23:46 | 48.37101 | 3.07630 | 93° | 91km/h | 7958m | 4.5m/s | 0°C | 0% | 0hPa | 0V | 00:00:00 | 00:00:00 | 00:00:00 | |
| DB0UT-7 | 2026-09-04 14:23:16 | 48.37010 | 3.06607 | 86° | 95km/h | 7797m | 5.0m/s | 0°C | 0% | 0hPa | 0V | 00:00:00 | 00:00:00 | 00:00:00 | |
| DB0UT-7 | 2026-09-04 14:22:46 | 48.36875 | 3.05547 | 78° | 95km/h | 7642m | 5.8m/s | 0°C | 0% | 0hPa | 0V | 00:00:00 | 00:00:00 | 00:00:00 | |
| DB0UT-7 | 2026-09-04 14:22:16 | 48.36675 | 3.04514 | 74° | 86km/h | 7489m | 3.9m/s | 0°C | 0% | 0hPa | 0V | 00:00:00 | 00:00:00 | 00:00:00 | |
| DB0UT-7 | 2026-09-04 14:21:46 | 48.36510 | 3.03565 | 79° | 91km/h | 7338m | 4.5m/s | 0°C | 0% | 0hPa | 0V | 00:00:00 | 00:00:00 | 00:00:00 | |
| DB0UT-7 | 2026-09-04 14:21:16 | 48.36380 | 3.02540 | 78° | 93km/h | 7180m | 4.9m/s | 0°C | 0% | 0hPa | 0V | 00:00:00 | 00:00:00 | 00:00:00 | |
| DB0UT-7 | 2026-09-04 14:20:16 | 48.36146 | 3.00403 | 83° | 93km/h | 6885m | 7.0m/s | 0°C | 0% | 0hPa | 0V | 00:00:00 | 00:00:00 | 00:00:00 | |
| DB0UT-7 | 2026-09-04 14:19:46 | 48.36002 | 2.99362 | 82° | 93km/h | 6719m | 5.0m/s | 0°C | 0% | 0hPa | 0V | 00:00:00 | 00:00:00 | 00:00:00 | |
| DB0UT-7 | 2026-09-04 14:19:16 | 48.35800 | 2.98360 | 76° | 88km/h | 6562m | 4.4m/s | 0°C | 0% | 0hPa | 0V | 00:00:00 | 00:00:00 | 00:00:00 | |
| DB0UT-7 | 2026-09-04 14:18:46 | 48.35596 | 2.97416 | 74° | 84km/h | 6411m | 6.6m/s | 0°C | 0% | 0hPa | 0V | 00:00:00 | 00:00:00 | 00:00:00 | |
| DB0UT-7 | 2026-09-04 14:18:16 | 48.35368 | 2.96522 | 68° | 89km/h | 6265m | 4.3m/s | 0°C | 0% | 0hPa | 0V | 00:00:00 | 00:00:00 | 00:00:00 | |
| DB0UT-7 | 2026-09-04 14:17:46 | 48.35135 | 2.95577 | 65° | 89km/h | 6105m | 5.3m/s | 0°C | 0% | 0hPa | 0V | 00:00:00 | 00:00:00 | 00:00:00 | |
| DB0UT-7 | 2026-09-04 14:17:16 | 48.34903 | 2.94615 | 70° | 89km/h | 5938m | 5.4m/s | 0°C | 0% | 0hPa | 0V | 00:00:00 | 00:00:00 | 00:00:00 | |
| DB0UT-7 | 2026-09-04 14:16:46 | 48.34669 | 2.93658 | 69° | 93km/h | 5788m | 4.2m/s | 0°C | 0% | 0hPa | 0V | 00:00:00 | 00:00:00 | 00:00:00 | |
| DB0UT-7 | 2026-09-04 14:16:16 | 48.34406 | 2.92682 | 61° | 91km/h | 5636m | 5.1m/s | 0°C | 0% | 0hPa | 0V | 00:00:00 | 00:00:00 | 00:00:00 | |
| DB0UT-7 | 2026-09-04 14:15:46 | 48.34095 | 2.91763 | 63° | 93km/h | 5490m | 1.1m/s | 0°C | 0% | 0hPa | 0V | 00:00:00 | 00:00:00 | 00:00:00 | |
| DB0UT-7 | 2026-09-04 14:15:16 | 48.33758 | 2.90857 | 62° | 88km/h | 5333m | 5.7m/s | 0°C | 0% | 0hPa | 0V | 00:00:00 | 00:00:00 | 00:00:00 | |
| DB0UT-7 | 2026-09-04 14:14:46 | 48.33431 | 2.89976 | 60° | 93km/h | 5178m | 4.1m/s | 0°C | 0% | 0hPa | 0V | 00:00:00 | 00:00:00 | 00:00:00 |